Observation data for Snyder SSW on 04/23/2019      Previous  Date  Next       Current Mesonet Observations  Soil Data  Daily Summary Page  Observations in Plain Language
KWT1 230500Z 02005KT 17/16 A2999 RMK A01 T01700162  RH  094%=      5-min Rain = 0
KWT1 230501Z 02005KT 17/16 A2999 RMK A01 T01710162  RH  095%=      5-min Rain = 0
KWT1 230502Z 02005KT 17/16 A2999 RMK A01 T01700162  RH  095%=      5-min Rain = 0
KWT1 230503Z 03007KT 17/16 A2999 RMK A01 T01700162  RH  095%=      5-min Rain = 0
KWT1 230504Z 03007KT 17/16 A2999 RMK A01 T01700162  RH  095%=      5-min Rain = 0
KWT1 230505Z 03006KT 17/16 A2999 RMK A01 T01700162  RH  095%=      5-min Rain = 0
KWT1 230506Z 03006KT 17/16 A2999 RMK A01 T01700162  RH  095%=      5-min Rain = 0
KWT1 230507Z 03005KT 17/16 A2999 RMK A01 T01700162  RH  095%=      5-min Rain = 0
KWT1 230508Z 02005KT 17/16 A2999 RMK A01 T01700162  RH  095%=      5-min Rain = 0
KWT1 230509Z 01005KT 17/16 A2999 RMK A01 T01700162  RH  095%=      5-min Rain = 0
KWT1 230510Z 36006KT 17/16 A30 RMK A01 T01700162  RH  095%=      5-min Rain = 0
KWT1 230511Z 00007KT 17/16 A30 RMK A01 T01700162  RH  095%=      5-min Rain = 0
KWT1 230512Z 36007KT 17/16 A30 RMK A01 T01700163  RH  095%=      5-min Rain = 0
KWT1 230513Z 35006KT 17/16 A30 RMK A01 T01700163  RH  095%=      5-min Rain = 0
KWT1 230514Z 35008KT 17/16 A30 RMK A01 T01710163  RH  095%=      5-min Rain = 0
KWT1 230515Z 35007KT 17/16 A30 RMK A01 T01710163  RH  095%=      5-min Rain = 0
KWT1 230516Z 34007KT 17/16 A30 RMK A01 T01710162  RH  095%=      5-min Rain = 0
KWT1 230517Z 35007KT 17/16 A30 RMK A01 T01710162  RH  095%=      5-min Rain = 0
KWT1 230518Z 35007KT 17/16 A30 RMK A01 T01710162  RH  095%=      5-min Rain = 0
KWT1 230519Z 35008KT 17/16 A30 RMK A01 T01710163  RH  095%=      5-min Rain = 0
KWT1 230520Z 34006KT 17/16 A30 RMK A01 T01710163  RH  095%=      5-min Rain = 0
KWT1 230521Z 34008KT 17/16 A30 RMK A01 T01710162  RH  095%=      5-min Rain = 0
KWT1 230522Z 33008KT 17/16 A30 RMK A01 T01710163  RH  095%=      5-min Rain = 0
KWT1 230523Z 34008KT 17/16 A30 RMK A01 T01710162  RH  095%=      5-min Rain = 0
KWT1 230524Z 34008KT 17/16 A30 RMK A01 T01710162  RH  094%=      5-min Rain = 0
KWT1 230525Z 34007KT 17/16 A30 RMK A01 T01710162  RH  094%=      5-min Rain = 0
KWT1 230526Z 34008KT 17/16 A30 RMK A01 T01710162  RH  094%=      5-min Rain = 0
KWT1 230527Z 35007KT 17/16 A30 RMK A01 T01710162  RH  094%=      5-min Rain = 0
KWT1 230528Z 35007KT 17/16 A30 RMK A01 T01710162  RH  094%=      5-min Rain = 0
KWT1 230529Z 35007KT 17/16 A30 RMK A01 T01710161  RH  094%=      5-min Rain = 0
KWT1 230530Z 35006KT 17/16 A30 RMK A01 T01710161  RH  094%=      5-min Rain = 0
KWT1 230531Z 35005KT 17/16 A30 RMK A01 T01710161  RH  094%=      5-min Rain = 0
KWT1 230532Z 35005KT 17/16 A30 RMK A01 T01720162  RH  094%=      5-min Rain = 0
KWT1 230533Z 00005KT 17/16 A30 RMK A01 T01710161  RH  094%=      5-min Rain = 0
KWT1 230534Z 00005KT 17/16 A30 RMK A01 T01720162  RH  094%=      5-min Rain = 0
KWT1 230535Z 35006KT 17/16 A30 RMK A01 T01720162  RH  094%=      5-min Rain = 0
KWT1 230536Z 36005KT 17/16 A30 RMK A01 T01720162  RH  094%=      5-min Rain = 0
KWT1 230537Z 36005KT 17/16 A30 RMK A01 T01710161  RH  094%=      5-min Rain = 0
KWT1 230538Z 36005KT 17/16 A30 RMK A01 T01710161  RH  094%=      5-min Rain = 0
KWT1 230539Z 35006KT 17/16 A30 RMK A01 T01710161  RH  094%=      5-min Rain = 0
KWT1 230540Z 35006KT 17/16 A30 RMK A01 T01710161  RH  094%=      5-min Rain = 0
KWT1 230541Z 36005KT 17/16 A30 RMK A01 T01710161  RH  094%=      5-min Rain = 0
KWT1 230542Z 36006KT 17/16 A30 RMK A01 T01710161  RH  094%=      5-min Rain = 0
KWT1 230543Z 00006KT 17/16 A30 RMK A01 T01710161  RH  094%=      5-min Rain = 0
KWT1 230544Z 00007KT 17/16 A30 RMK A01 T01710161  RH  094%=      5-min Rain = 0
KWT1 230545Z 36007KT 17/16 A30 RMK A01 T01710161  RH  094%=      5-min Rain = 0
KWT1 230546Z 00006KT 17/16 A30 RMK A01 T01710161  RH  094%=      5-min Rain = 0
KWT1 230547Z 00007KT 17/16 A30 RMK A01 T01700161  RH  094%=      5-min Rain = 0
KWT1 230548Z 00006KT 17/16 A30 RMK A01 T01710161  RH  094%=      5-min Rain = 0
KWT1 230549Z 00007KT 17/16 A30 RMK A01 T01700161  RH  094%=      5-min Rain = 0
KWT1 230550Z 01006KT 17/16 A30 RMK A01 T01700161  RH  094%=      5-min Rain = 0
KWT1 230551Z 01007KT 17/16 A30 RMK A01 T01700161  RH  094%=      5-min Rain = 0
KWT1 230552Z 01005KT 17/16 A30 RMK A01 T01700161  RH  094%=      5-min Rain = 0
KWT1 230553Z 01004KT 17/16 A30 RMK A01 T01700161  RH  094%=      5-min Rain = 0
KWT1 230554Z 05002KT 17/16 A30 RMK A01 T01700161  RH  094%=      5-min Rain = 0
KWT1 230555Z 06003KT 17/16 A30 RMK A01 T01700160  RH  094%=      5-min Rain = 0
KWT1 230556Z 09002KT 17/16 A30 RMK A01 T01700160  RH  094%=      5-min Rain = 0
KWT1 230557Z 13002KT 17/16 A30 RMK A01 T01700160  RH  094%=      5-min Rain = 0
KWT1 230558Z 07002KT 17/16 A30 RMK A01 T01700161  RH  094%=      5-min Rain = 0
KWT1 230559Z 07002KT 17/16 A30 RMK A01 T01700160  RH  094%=      5-min Rain = 0
KWT1 230600Z 05003KT 17/16 A2999 RMK A01 T01700160  RH  094%=      5-min Rain = 0
KWT1 230601Z 06004KT 17/16 A2999 RMK A01 T01700161  RH  094%=      5-min Rain = 0
KWT1 230602Z 06004KT 17/16 A2999 RMK A01 T01700160  RH  094%=      5-min Rain = 0
KWT1 230603Z 06005KT 17/16 A2999 RMK A01 T01700160  RH  094%=      5-min Rain = 0
KWT1 230604Z 06005KT 17/16 A2999 RMK A01 T01690160  RH  094%=      5-min Rain = 0
KWT1 230605Z 06006KT 17/16 A2999 RMK A01 T01680159  RH  094%=      5-min Rain = 0
KWT1 230606Z 07006KT 17/16 A2999 RMK A01 T01680159  RH  094%=      5-min Rain = 0
KWT1 230607Z 08006KT 17/16 A2999 RMK A01 T01680159  RH  095%=      5-min Rain = 0
KWT1 230608Z 08006KT 17/16 A2999 RMK A01 T01680159  RH  095%=      5-min Rain = 0
KWT1 230609Z 08006KT 17/16 A2999 RMK A01 T01670159  RH  095%=      5-min Rain = 0
KWT1 230610Z 08005KT 17/16 A2998 RMK A01 T01670159  RH  095%=      5-min Rain = 0
KWT1 230611Z 08005KT 17/16 A2998 RMK A01 T01670159  RH  095%=      5-min Rain = 0
KWT1 230612Z 09005KT 17/16 A2998 RMK A01 T01670159  RH  095%=      5-min Rain = 0
KWT1 230613Z 09005KT 17/16 A2998 RMK A01 T01660159  RH  095%=      5-min Rain = 0
KWT1 230614Z 08004KT 17/16 A2998 RMK A01 T01660159  RH  095%=      5-min Rain = 0
KWT1 230615Z 07004KT 17/16 A2998 RMK A01 T01660158  RH  095%=      5-min Rain = 0
KWT1 230616Z 07004KT 17/16 A2998 RMK A01 T01650158  RH  096%=      5-min Rain = 0
KWT1 230617Z 07005KT 16/16 A2998 RMK A01 T01640157  RH  096%=      5-min Rain = 0
KWT1 230618Z 07004KT 16/16 A2998 RMK A01 T01640157  RH  096%=      5-min Rain = 0
KWT1 230619Z 08003KT 16/16 A2998 RMK A01 T01640157  RH  096%=      5-min Rain = 0
KWT1 230620Z 09003KT 16/16 A2998 RMK A01 T01630157  RH  096%=      5-min Rain = 0
KWT1 230621Z 08003KT 16/16 A2998 RMK A01 T01630157  RH  096%=      5-min Rain = 0
KWT1 230622Z 08002KT 16/16 A2998 RMK A01 T01630157  RH  096%=      5-min Rain = 0
KWT1 230623Z 08002KT 16/16 A2998 RMK A01 T01630157  RH  096%=      5-min Rain = 0
KWT1 230624Z 08002KT 16/16 A2998 RMK A01 T01620157  RH  097%=      5-min Rain = 0
KWT1 230625Z 06002KT 16/16 A2998 RMK A01 T01620157  RH  097%=      5-min Rain = 0
KWT1 230626Z 06002KT 16/16 A2998 RMK A01 T01620157  RH  097%=      5-min Rain = 0
KWT1 230627Z 03002KT 16/16 A2998 RMK A01 T01610156  RH  097%=      5-min Rain = 0
KWT1 230628Z 03003KT 16/16 A2998 RMK A01 T01610157  RH  097%=      5-min Rain = 0
KWT1 230629Z 03003KT 16/16 A2998 RMK A01 T01620157  RH  097%=      5-min Rain = 0
KWT1 230630Z 03003KT 16/16 A2998 RMK A01 T01610157  RH  097%=      5-min Rain = 0
KWT1 230631Z 03003KT 16/16 A2998 RMK A01 T01610157  RH  097%=      5-min Rain = 0
KWT1 230632Z 03003KT 16/16 A2998 RMK A01 T01600156  RH  097%=      5-min Rain = 0
KWT1 230633Z 03003KT 16/16 A2998 RMK A01 T01600156  RH  097%=      5-min Rain = 0
KWT1 230634Z 03004KT 16/16 A2998 RMK A01 T01600156  RH  098%=      5-min Rain = 0
KWT1 230635Z 03004KT 16/16 A2998 RMK A01 T01600156  RH  098%=      5-min Rain = 0
KWT1 230636Z 04004KT 16/16 A2998 RMK A01 T01590156  RH  098%=      5-min Rain = 0
KWT1 230637Z 03004KT 16/16 A2997 RMK A01 T01590156  RH  098%=      5-min Rain = 0
KWT1 230638Z 03004KT 16/16 A2997 RMK A01 T01590156  RH  098%=      5-min Rain = 0
KWT1 230639Z 03004KT 16/16 A2997 RMK A01 T01590156  RH  098%=      5-min Rain = 0
KWT1 230640Z 03004KT 16/16 A2997 RMK A01 T01590156  RH  098%=      5-min Rain = 0
KWT1 230641Z 02004KT 16/16 A2997 RMK A01 T01590156  RH  098%=      5-min Rain = 0
KWT1 230642Z 02004KT 16/16 A2997 RMK A01 T01580156  RH  098%=      5-min Rain = 0
KWT1 230643Z 03005KT 16/16 A2997 RMK A01 T01580155  RH  098%=      5-min Rain = 0
KWT1 230644Z 03004KT 16/16 A2997 RMK A01 T01580155  RH  098%=      5-min Rain = 0
KWT1 230645Z 03003KT 16/16 A2997 RMK A01 T01580155  RH  098%=      5-min Rain = 0
KWT1 230646Z 02002KT 16/16 A2997 RMK A01 T01590157  RH  099%=      5-min Rain = 0
KWT1 230647Z 03002KT 16/16 A2997 RMK A01 T01590157  RH  099%=      5-min Rain = 0
KWT1 230648Z 02003KT 16/16 A2997 RMK A01 T01600157  RH  099%=      5-min Rain = 0
KWT1 230649Z 02003KT 16/16 A2997 RMK A01 T01590157  RH  099%=      5-min Rain = 0
KWT1 230650Z 03002KT 16/16 A2997 RMK A01 T01600157  RH  098%=      5-min Rain = 0
KWT1 230651Z 03002KT 16/16 A2997 RMK A01 T01590156  RH  098%=      5-min Rain = 0
KWT1 230652Z 01003KT 16/16 A2997 RMK A01 T01590156  RH  098%=      5-min Rain = 0
KWT1 230653Z 01004KT 16/16 A2997 RMK A01 T01590156  RH  098%=      5-min Rain = 0
KWT1 230654Z 01005KT 16/16 A2997 RMK A01 T01590156  RH  098%=      5-min Rain = 0
KWT1 230655Z 01004KT 16/16 A2997 RMK A01 T01580155  RH  098%=      5-min Rain = 0
KWT1 230656Z 01005KT 16/16 A2997 RMK A01 T01580155  RH  098%=      5-min Rain = 0
KWT1 230657Z 01005KT 16/16 A2997 RMK A01 T01580155  RH  098%=      5-min Rain = 0
KWT1 230658Z 01005KT 16/15 A2997 RMK A01 T01570154  RH  098%=      5-min Rain = 0
KWT1 230659Z 01005KT 16/15 A2997 RMK A01 T01570153  RH  098%=      5-min Rain = 0
KWT1 230700Z 01005KT 16/15 A2997 RMK A01 T01570153  RH  098%=      5-min Rain = 0
KWT1 230701Z 01006KT 16/15 A2997 RMK A01 T01570153  RH  098%=      5-min Rain = 0
KWT1 230702Z 01005KT 16/15 A2997 RMK A01 T01570153  RH  098%=      5-min Rain = 0
KWT1 230703Z 02005KT 16/15 A2997 RMK A01 T01560153  RH  098%=      5-min Rain = 0
KWT1 230704Z 02005KT 16/15 A2997 RMK A01 T01560152  RH  098%=      5-min Rain = 0
KWT1 230705Z 01005KT 16/15 A2997 RMK A01 T01560153  RH  098%=      5-min Rain = 0
KWT1 230706Z 02005KT 16/15 A2997 RMK A01 T01560153  RH  098%=      5-min Rain = 0
KWT1 230707Z 03004KT 16/15 A2997 RMK A01 T01560153  RH  098%=      5-min Rain = 0
KWT1 230708Z 02004KT 16/15 A2997 RMK A01 T01560154  RH  098%=      5-min Rain = 0
KWT1 230709Z 02005KT 16/15 A2997 RMK A01 T01570154  RH  098%=      5-min Rain = 0
KWT1 230710Z 02005KT 16/15 A2997 RMK A01 T01570154  RH  098%=      5-min Rain = 0
KWT1 230711Z 03005KT 16/16 A2997 RMK A01 T01580155  RH  098%=      5-min Rain = 0
KWT1 230712Z 02005KT 16/16 A2997 RMK A01 T01580155  RH  098%=      5-min Rain = 0
KWT1 230713Z 02005KT 16/16 A2997 RMK A01 T01580155  RH  098%=      5-min Rain = 0
KWT1 230714Z 02004KT 16/16 A2997 RMK A01 T01580155  RH  098%=      5-min Rain = 0
KWT1 230715Z 01004KT 16/16 A2997 RMK A01 T01580155  RH  098%=      5-min Rain = 0
KWT1 230716Z 01004KT 16/16 A2997 RMK A01 T01570155  RH  098%=      5-min Rain = 0
KWT1 230717Z 01004KT 16/16 A2997 RMK A01 T01580155  RH  098%=      5-min Rain = 0
KWT1 230718Z 01003KT 16/16 A2997 RMK A01 T01580155  RH  098%=      5-min Rain = 0
KWT1 230719Z 01003KT 16/16 A2997 RMK A01 T01580155  RH  098%=      5-min Rain = 0
KWT1 230720Z 01003KT 16/16 A2997 RMK A01 T01580155  RH  098%=      5-min Rain = 0
KWT1 230721Z 01002KT 16/16 A2997 RMK A01 T01580155  RH  098%=      5-min Rain = 0
KWT1 230722Z 00002KT 16/16 A2997 RMK A01 T01580156  RH  098%=      5-min Rain = 0
KWT1 230723Z 35002KT 16/16 A2997 RMK A01 T01590156  RH  098%=      5-min Rain = 0
KWT1 230724Z 34002KT 16/16 A2997 RMK A01 T01590156  RH  098%=      5-min Rain = 0
KWT1 230725Z 33002KT 16/16 A2997 RMK A01 T01590156  RH  098%=      5-min Rain = 0
KWT1 230726Z 33002KT 16/16 A2997 RMK A01 T01590156  RH  098%=      5-min Rain = 0
KWT1 230727Z 34003KT 16/16 A2998 RMK A01 T01590156  RH  098%=      5-min Rain = 0
KWT1 230728Z 33003KT 16/16 A2998 RMK A01 T01590156  RH  098%=      5-min Rain = 0
KWT1 230729Z 34003KT 16/16 A2998 RMK A01 T01590156  RH  098%=      5-min Rain = 0
KWT1 230730Z 34003KT 16/16 A2998 RMK A01 T01590156  RH  098%=      5-min Rain = 0
KWT1 230731Z 35003KT 16/16 A2998 RMK A01 T01590156  RH  098%=      5-min Rain = 0
KWT1 230732Z 35003KT 16/16 A2998 RMK A01 T01580155  RH  098%=      5-min Rain = 0
KWT1 230733Z 35004KT 16/16 A2998 RMK A01 T01580155  RH  098%=      5-min Rain = 0
KWT1 230734Z 34004KT 16/16 A2998 RMK A01 T01580155  RH  098%=      5-min Rain = 0
KWT1 230735Z 34004KT 16/16 A2998 RMK A01 T01580155  RH  098%=      5-min Rain = 0
KWT1 230736Z 32004KT 16/15 A2998 RMK A01 T01570154  RH  098%=      5-min Rain = 0
KWT1 230737Z 31003KT 16/15 A2998 RMK A01 T01570154  RH  098%=      5-min Rain = 0
KWT1 230738Z 30003KT 16/15 A2998 RMK A01 T01570154  RH  098%=      5-min Rain = 0
KWT1 230739Z 31003KT 16/15 A2998 RMK A01 T01560153  RH  098%=      5-min Rain = 0
KWT1 230740Z 31003KT 16/15 A2998 RMK A01 T01560153  RH  098%=      5-min Rain = 0
KWT1 230741Z 31003KT 16/15 A2998 RMK A01 T01560153  RH  098%=      5-min Rain = 0
KWT1 230742Z 32004KT 16/15 A2998 RMK A01 T01550152  RH  098%=      5-min Rain = 0
KWT1 230743Z 33004KT 16/15 A2998 RMK A01 T01550152  RH  098%=      5-min Rain = 0
KWT1 230744Z 33005KT 16/15 A2998 RMK A01 T01550151  RH  098%=      5-min Rain = 0
KWT1 230745Z 34005KT 16/15 A2998 RMK A01 T01550152  RH  098%=      5-min Rain = 0
KWT1 230746Z 34005KT 16/15 A2998 RMK A01 T01550152  RH  098%=      5-min Rain = 0
KWT1 230747Z 34005KT 16/15 A2998 RMK A01 T01550152  RH  098%=      5-min Rain = 0
KWT1 230748Z 35005KT 16/15 A2998 RMK A01 T01550152  RH  098%=      5-min Rain = 0
KWT1 230749Z 00003KT 16/15 A2998 RMK A01 T01550153  RH  098%=      5-min Rain = 0
KWT1 230750Z 02003KT 16/15 A2997 RMK A01 T01560153  RH  098%=      5-min Rain = 0
KWT1 230751Z 02003KT 16/15 A2997 RMK A01 T01550152  RH  098%=      5-min Rain = 0
KWT1 230752Z 03002KT 16/15 A2997 RMK A01 T01550152  RH  098%=      5-min Rain = 0
KWT1 230753Z 03004KT 16/15 A2997 RMK A01 T01550152  RH  098%=      5-min Rain = 0
KWT1 230754Z 02003KT 16/15 A2997 RMK A01 T01560152  RH  098%=      5-min Rain = 0
KWT1 230755Z 01003KT 16/15 A2997 RMK A01 T01550152  RH  098%=      5-min Rain = 0
KWT1 230756Z 36004KT 16/15 A2997 RMK A01 T01560152  RH  098%=      5-min Rain = 0
KWT1 230757Z 36004KT 16/15 A2997 RMK A01 T01560152  RH  098%=      5-min Rain = 0
KWT1 230758Z 36003KT 16/15 A2997 RMK A01 T01560152  RH  098%=      5-min Rain = 0
KWT1 230759Z 00002KT 16/15 A2997 RMK A01 T01560152  RH  098%=      5-min Rain = 0
KWT1 230800Z 00003KT 16/15 A2997 RMK A01 T01560152  RH  098%=      5-min Rain = 0
KWT1 230801Z 00004KT 16/15 A2997 RMK A01 T01560153  RH  098%=      5-min Rain = 0
KWT1 230802Z 00004KT 16/15 A2997 RMK A01 T01560152  RH  098%=      5-min Rain = 0
KWT1 230803Z 01005KT 16/15 A2997 RMK A01 T01560153  RH  098%=      5-min Rain = 0
KWT1 230804Z 00004KT 16/15 A2997 RMK A01 T01560152  RH  098%=      5-min Rain = 0
KWT1 230805Z 36005KT 16/15 A2997 RMK A01 T01560153  RH  098%=      5-min Rain = 0
KWT1 230806Z 36004KT 16/15 A2997 RMK A01 T01560152  RH  098%=      5-min Rain = 0
KWT1 230807Z 36004KT 16/15 A2997 RMK A01 T01560152  RH  098%=      5-min Rain = 0
KWT1 230808Z 00004KT 16/15 A2997 RMK A01 T01560153  RH  098%=      5-min Rain = 0
KWT1 230809Z 02004KT 16/15 A2997 RMK A01 T01560152  RH  098%=      5-min Rain = 0
KWT1 230810Z 01004KT 16/15 A2997 RMK A01 T01560152  RH  098%=      5-min Rain = 0
KWT1 230811Z 00004KT 16/15 A2997 RMK A01 T01560152  RH  098%=      5-min Rain = 0
KWT1 230812Z 36004KT 16/15 A2997 RMK A01 T01560152  RH  098%=      5-min Rain = 0
KWT1 230813Z 35004KT 16/15 A2997 RMK A01 T01560153  RH  098%=      5-min Rain = 0
KWT1 230814Z 34003KT 16/15 A2997 RMK A01 T01560153  RH  098%=      5-min Rain = 0
KWT1 230815Z 34003KT 16/15 A2997 RMK A01 T01570153  RH  098%=      5-min Rain = 0
KWT1 230816Z 33003KT 16/15 A2997 RMK A01 T01570153  RH  098%=      5-min Rain = 0
KWT1 230817Z 33003KT 16/15 A2997 RMK A01 T01580154  RH  098%=      5-min Rain = 0
KWT1 230818Z 34003KT 16/15 A2998 RMK A01 T01570153  RH  097%=      5-min Rain = 0
KWT1 230819Z 33002KT 16/15 A2998 RMK A01 T01570153  RH  097%=      5-min Rain = 0
KWT1 230820Z 33003KT 16/15 A2998 RMK A01 T01580153  RH  097%=      5-min Rain = 0
KWT1 230821Z 33003KT 16/15 A2998 RMK A01 T01580154  RH  097%=      5-min Rain = 0
KWT1 230822Z 34003KT 16/15 A2998 RMK A01 T01580153  RH  097%=      5-min Rain = 0
KWT1 230823Z 34003KT 16/15 A2998 RMK A01 T01580153  RH  097%=      5-min Rain = 0
KWT1 230824Z 34003KT 16/15 A2998 RMK A01 T01580153  RH  097%=      5-min Rain = 0
KWT1 230825Z 34002KT 16/15 A2998 RMK A01 T01580153  RH  097%=      5-min Rain = 0
KWT1 230826Z 34002KT 16/15 A2998 RMK A01 T01580153  RH  097%=      5-min Rain = 0
KWT1 230827Z 35002KT 16/15 A2997 RMK A01 T01580153  RH  097%=      5-min Rain = 0
KWT1 230828Z 35003KT 16/15 A2997 RMK A01 T01580154  RH  097%=      5-min Rain = 0
KWT1 230829Z 34003KT 16/15 A2998 RMK A01 T01590154  RH  097%=      5-min Rain = 0
KWT1 230830Z 35004KT 16/15 A2998 RMK A01 T01590154  RH  097%=      5-min Rain = 0
KWT1 230831Z 35005KT 16/15 A2998 RMK A01 T01590154  RH  097%=      5-min Rain = 0
KWT1 230832Z 34004KT 16/15 A2998 RMK A01 T01590154  RH  097%=      5-min Rain = 0
KWT1 230833Z 35004KT 16/15 A2998 RMK A01 T01590154  RH  097%=      5-min Rain = 0
KWT1 230834Z 36006KT 16/15 A2998 RMK A01 T01590154  RH  096%=      5-min Rain = 0
KWT1 230835Z 35005KT 16/15 A2998 RMK A01 T01590153  RH  096%=      5-min Rain = 0
KWT1 230836Z 36005KT 16/15 A2997 RMK A01 T01590153  RH  096%=      5-min Rain = 0
KWT1 230837Z 01005KT 16/15 A2997 RMK A01 T01590152  RH  095%=      5-min Rain = 0
KWT1 230838Z 00006KT 16/15 A2997 RMK A01 T01600152  RH  095%=      5-min Rain = 0
KWT1 230839Z 36005KT 16/15 A2997 RMK A01 T01600151  RH  095%=      5-min Rain = 0
KWT1 230840Z 00004KT 16/15 A2997 RMK A01 T01600151  RH  095%=      5-min Rain = 0
KWT1 230841Z 36005KT 16/15 A2997 RMK A01 T01600152  RH  095%=      5-min Rain = 0
KWT1 230842Z 36005KT 16/15 A2998 RMK A01 T01600152  RH  095%=      5-min Rain = 0
KWT1 230843Z 35006KT 16/15 A2998 RMK A01 T01600152  RH  095%=      5-min Rain = 0
KWT1 230844Z 36007KT 16/15 A2998 RMK A01 T01600151  RH  095%=      5-min Rain = 0
KWT1 230845Z 36006KT 16/15 A2998 RMK A01 T01600151  RH  094%=      5-min Rain = 0
KWT1 230846Z 34006KT 16/15 A2998 RMK A01 T01600151  RH  094%=      5-min Rain = 0
KWT1 230847Z 34007KT 16/15 A2998 RMK A01 T01600151  RH  094%=      5-min Rain = 0
KWT1 230848Z 35007KT 16/15 A2998 RMK A01 T01600151  RH  094%=      5-min Rain = 0
KWT1 230849Z 34008KT 16/15 A2998 RMK A01 T01600151  RH  094%=      5-min Rain = 0
KWT1 230850Z 35008KT 16/15 A2998 RMK A01 T01600150  RH  094%=      5-min Rain = 0
KWT1 230851Z 35008KT 16/15 A2998 RMK A01 T01600150  RH  094%=      5-min Rain = 0
KWT1 230852Z 35007KT 16/15 A2998 RMK A01 T01590150  RH  094%=      5-min Rain = 0
KWT1 230853Z 35007KT 16/15 A2998 RMK A01 T01590150  RH  094%=      5-min Rain = 0
KWT1 230854Z 35006KT 16/15 A2998 RMK A01 T01600150  RH  094%=      5-min Rain = 0
KWT1 230855Z 35005KT 16/15 A2998 RMK A01 T01600150  RH  094%=      5-min Rain = 0
KWT1 230856Z 35007KT 16/15 A2998 RMK A01 T01600150  RH  094%=      5-min Rain = 0
KWT1 230857Z 35006KT 16/15 A2998 RMK A01 T01600150  RH  094%=      5-min Rain = 0
KWT1 230858Z 34006KT 16/15 A2998 RMK A01 T01600150  RH  094%=      5-min Rain = 0
KWT1 230859Z 34005KT 16/15 A2998 RMK A01 T01600150  RH  094%=      5-min Rain = 0
KWT1 230900Z 34005KT 16/15 A2998 RMK A01 T01600151  RH  094%=      5-min Rain = 0
KWT1 230901Z 34005KT 16/15 A2998 RMK A01 T01600151  RH  094%=      5-min Rain = 0
KWT1 230902Z 35004KT 16/15 A2998 RMK A01 T01600151  RH  094%=      5-min Rain = 0
KWT1 230903Z 34005KT 16/15 A2998 RMK A01 T01600151  RH  094%=      5-min Rain = 0
KWT1 230904Z 34004KT 16/15 A2998 RMK A01 T01600151  RH  094%=      5-min Rain = 0
KWT1 230905Z 34005KT 16/15 A2998 RMK A01 T01600151  RH  095%=      5-min Rain = 0
KWT1 230906Z 34004KT 16/15 A2998 RMK A01 T01600151  RH  095%=      5-min Rain = 0
KWT1 230907Z 35004KT 16/15 A2998 RMK A01 T01600151  RH  095%=      5-min Rain = 0
KWT1 230908Z 35004KT 16/15 A2998 RMK A01 T01600151  RH  095%=      5-min Rain = 0
KWT1 230909Z 34004KT 16/15 A2998 RMK A01 T01600151  RH  095%=      5-min Rain = 0
KWT1 230910Z 34004KT 16/15 A2998 RMK A01 T01600152  RH  095%=      5-min Rain = 0
KWT1 230911Z 35004KT 16/15 A2998 RMK A01 T01600152  RH  095%=      5-min Rain = 0
KWT1 230912Z 34004KT 16/15 A2998 RMK A01 T01600152  RH  095%=      5-min Rain = 0
KWT1 230913Z 34005KT 16/15 A2998 RMK A01 T01600152  RH  095%=      5-min Rain = 0
KWT1 230914Z 33005KT 16/15 A2998 RMK A01 T01600152  RH  095%=      5-min Rain = 0
KWT1 230915Z 34005KT 16/15 A2998 RMK A01 T01610152  RH  095%=      5-min Rain = 0
KWT1 230916Z 33005KT 16/15 A2998 RMK A01 T01600152  RH  095%=      5-min Rain = 0
KWT1 230917Z 34004KT 16/15 A2998 RMK A01 T01610152  RH  094%=      5-min Rain = 0
KWT1 230918Z 34004KT 16/15 A2998 RMK A01 T01610152  RH  094%=      5-min Rain = 0
KWT1 230919Z 34004KT 16/15 A2998 RMK A01 T01610152  RH  094%=      5-min Rain = 0
KWT1 230920Z 35006KT 16/15 A2998 RMK A01 T01610152  RH  095%=      5-min Rain = 0
KWT1 230921Z 34007KT 16/15 A2998 RMK A01 T01610153  RH  095%=      5-min Rain = 0
KWT1 230922Z 35007KT 16/15 A2998 RMK A01 T01610152  RH  095%=      5-min Rain = 0
KWT1 230923Z 34005KT 16/15 A2998 RMK A01 T01610153  RH  095%=      5-min Rain = 0
KWT1 230924Z 34007KT 16/15 A2998 RMK A01 T01610152  RH  095%=      5-min Rain = 0
KWT1 230925Z 35007KT 16/15 A2998 RMK A01 T01610153  RH  095%=      5-min Rain = 0
KWT1 230926Z 35008KT 16/15 A2998 RMK A01 T01610153  RH  095%=      5-min Rain = 0
KWT1 230927Z 36007KT 16/15 A2998 RMK A01 T01610153  RH  095%=      5-min Rain = 0
KWT1 230928Z 00006KT 16/15 A2998 RMK A01 T01610153  RH  095%=      5-min Rain = 0
KWT1 230929Z 36007KT 16/15 A2998 RMK A01 T01610153  RH  095%=      5-min Rain = 0
KWT1 230930Z 00007KT 16/15 A2998 RMK A01 T01610153  RH  095%=      5-min Rain = 0
KWT1 230931Z 36007KT 16/15 A2998 RMK A01 T01600153  RH  095%=      5-min Rain = 0
KWT1 230932Z 36007KT 16/15 A2998 RMK A01 T01600153  RH  095%=      5-min Rain = 0
KWT1 230933Z 36007KT 16/15 A2998 RMK A01 T01600152  RH  095%=      5-min Rain = 0
KWT1 230934Z 36008KT 16/15 A2998 RMK A01 T01600153  RH  095%=      5-min Rain = 0
KWT1 230935Z 36007KT 16/15 A2998 RMK A01 T01600153  RH  095%=      5-min Rain = 0
KWT1 230936Z 00007KT 16/15 A2998 RMK A01 T01600153  RH  095%=      5-min Rain = 0
KWT1 230937Z 00007KT 16/15 A2998 RMK A01 T01600153  RH  095%=      5-min Rain = 0
KWT1 230938Z 00007KT 16/15 A2998 RMK A01 T01600152  RH  095%=      5-min Rain = 0
KWT1 230939Z 00006KT 16/15 A2998 RMK A01 T01590152  RH  095%=      5-min Rain = 0
KWT1 230940Z 00006KT 16/15 A2998 RMK A01 T01600152  RH  095%=      5-min Rain = 0
KWT1 230941Z 01005KT 16/15 A2998 RMK A01 T01590152  RH  095%=      5-min Rain = 0
KWT1 230942Z 00006KT 16/15 A2998 RMK A01 T01600152  RH  095%=      5-min Rain = 0
KWT1 230943Z 01005KT 16/15 A2998 RMK A01 T01590152  RH  095%=      5-min Rain = 0
KWT1 230944Z 01006KT 16/15 A2998 RMK A01 T01600152  RH  095%=      5-min Rain = 0
KWT1 230945Z 02004KT 16/15 A2997 RMK A01 T01600152  RH  095%=      5-min Rain = 0
KWT1 230946Z 03007KT 16/15 A2997 RMK A01 T01590152  RH  095%=      5-min Rain = 0
KWT1 230947Z 03008KT 16/15 A2997 RMK A01 T01590152  RH  095%=      5-min Rain = 0
KWT1 230948Z 03008KT 16/15 A2997 RMK A01 T01590151  RH  095%=      5-min Rain = 0
KWT1 230949Z 03008KT 16/15 A2997 RMK A01 T01590151  RH  095%=      5-min Rain = 0
KWT1 230950Z 03009KT 16/15 A2997 RMK A01 T01580151  RH  095%=      5-min Rain = 0
KWT1 230951Z 02008KT 16/15 A2997 RMK A01 T01580150  RH  095%=      5-min Rain = 0
KWT1 230952Z 02007KT 16/15 A2997 RMK A01 T01570149  RH  095%=      5-min Rain = 0
KWT1 230953Z 02005KT 16/15 A2998 RMK A01 T01570150  RH  095%=      5-min Rain = 0
KWT1 230954Z 01005KT 16/15 A2998 RMK A01 T01570149  RH  095%=      5-min Rain = 0
KWT1 230955Z 01005KT 16/15 A2998 RMK A01 T01560149  RH  096%=      5-min Rain = 0
KWT1 230956Z 01004KT 16/15 A2998 RMK A01 T01560150  RH  096%=      5-min Rain = 0
KWT1 230957Z 03005KT 16/15 A2998 RMK A01 T01570150  RH  096%=      5-min Rain = 0
KWT1 230958Z 04004KT 16/15 A2998 RMK A01 T01560150  RH  096%=      5-min Rain = 0
KWT1 230959Z 02004KT 16/15 A2998 RMK A01 T01560150  RH  096%=      5-min Rain = 0
KWT1 231000Z 02006KT 16/15 A2998 RMK A01 T01570151  RH  096%=      5-min Rain = 0
KWT1 231001Z 03006KT 16/15 A2998 RMK A01 T01570150  RH  096%=      5-min Rain = 0
KWT1 231002Z 03006KT 16/15 A2998 RMK A01 T01570150  RH  096%=      5-min Rain = 0
KWT1 231003Z 03005KT 16/15 A2998 RMK A01 T01570150  RH  096%=      5-min Rain = 0
KWT1 231004Z 04005KT 16/15 A2998 RMK A01 T01570150  RH  095%=      5-min Rain = 0
KWT1 231005Z 04005KT 16/15 A2998 RMK A01 T01570150  RH  096%=      5-min Rain = 0
KWT1 231006Z 04005KT 16/15 A2998 RMK A01 T01560149  RH  096%=      5-min Rain = 0
KWT1 231007Z 05005KT 16/15 A2998 RMK A01 T01560150  RH  096%=      5-min Rain = 0
KWT1 231008Z 05004KT 16/15 A2998 RMK A01 T01560150  RH  096%=      5-min Rain = 0
KWT1 231009Z 06004KT 16/15 A2998 RMK A01 T01560149  RH  096%=      5-min Rain = 0
KWT1 231010Z 06005KT 16/15 A2998 RMK A01 T01560149  RH  096%=      5-min Rain = 0
KWT1 231011Z 05005KT 16/15 A2998 RMK A01 T01560149  RH  096%=      5-min Rain = 0
KWT1 231012Z 06004KT 16/15 A2998 RMK A01 T01560149  RH  096%=      5-min Rain = 0
KWT1 231013Z 05003KT 16/15 A2998 RMK A01 T01550149  RH  096%=      5-min Rain = 0
KWT1 231014Z 04004KT 16/15 A2998 RMK A01 T01550149  RH  096%=      5-min Rain = 0
KWT1 231015Z 04004KT 15/15 A2998 RMK A01 T01540148  RH  096%=      5-min Rain = 0
KWT1 231016Z 04004KT 15/15 A2998 RMK A01 T01540149  RH  096%=      5-min Rain = 0
KWT1 231017Z 04004KT 15/15 A2998 RMK A01 T01540148  RH  096%=      5-min Rain = 0
KWT1 231018Z 05004KT 15/15 A2998 RMK A01 T01540149  RH  097%=      5-min Rain = 0
KWT1 231019Z 05005KT 15/15 A2998 RMK A01 T01540149  RH  097%=      5-min Rain = 0
KWT1 231020Z 07003KT 15/15 A2998 RMK A01 T01540149  RH  097%=      5-min Rain = 0
KWT1 231021Z 08004KT 15/15 A2998 RMK A01 T01540149  RH  097%=      5-min Rain = 0
KWT1 231022Z 08004KT 15/15 A2998 RMK A01 T01540149  RH  097%=      5-min Rain = 0
KWT1 231023Z 07004KT 15/15 A2998 RMK A01 T01540149  RH  097%=      5-min Rain = 0
KWT1 231024Z 06003KT 15/15 A2998 RMK A01 T01540150  RH  097%=      5-min Rain = 0
KWT1 231025Z 05003KT 15/15 A2998 RMK A01 T01540150  RH  097%=      5-min Rain = 0
KWT1 231026Z 05004KT 15/15 A2998 RMK A01 T01540150  RH  097%=      5-min Rain = 0
KWT1 231027Z 05005KT 16/15 A2998 RMK A01 T01550150  RH  097%=      5-min Rain = 0
KWT1 231028Z 03004KT 16/15 A2998 RMK A01 T01550151  RH  097%=      5-min Rain = 0
KWT1 231029Z 02004KT 16/15 A2998 RMK A01 T01550151  RH  097%=      5-min Rain = 0
KWT1 231030Z 02005KT 16/15 A2998 RMK A01 T01550151  RH  097%=      5-min Rain = 0
KWT1 231031Z 02004KT 16/15 A2998 RMK A01 T01550150  RH  097%=      5-min Rain = 0
KWT1 231032Z 02004KT 16/15 A2998 RMK A01 T01550150  RH  097%=      5-min Rain = 0
KWT1 231033Z 02003KT 16/15 A2998 RMK A01 T01550150  RH  097%=      5-min Rain = 0
KWT1 231034Z 02005KT 16/15 A2998 RMK A01 T01550150  RH  097%=      5-min Rain = 0
KWT1 231035Z 02005KT 16/15 A2998 RMK A01 T01550150  RH  097%=      5-min Rain = 0
KWT1 231036Z 02004KT 16/15 A2998 RMK A01 T01550150  RH  097%=      5-min Rain = 0
KWT1 231037Z 01004KT 16/15 A2998 RMK A01 T01550150  RH  097%=      5-min Rain = 0
KWT1 231038Z 01006KT 16/15 A2998 RMK A01 T01550150  RH  097%=      5-min Rain = 0
KWT1 231039Z 01005KT 16/15 A2998 RMK A01 T01550150  RH  097%=      5-min Rain = 0
KWT1 231040Z 01006KT 16/15 A2998 RMK A01 T01550150  RH  097%=      5-min Rain = 0
KWT1 231041Z 00005KT 16/15 A2998 RMK A01 T01560150  RH  096%=      5-min Rain = 0
KWT1 231042Z 36005KT 16/15 A2998 RMK A01 T01550150  RH  096%=      5-min Rain = 0
KWT1 231043Z 36006KT 16/15 A2998 RMK A01 T01560150  RH  096%=      5-min Rain = 0
KWT1 231044Z 35005KT 16/15 A2999 RMK A01 T01560150  RH  096%=      5-min Rain = 0
KWT1 231045Z 35005KT 16/15 A2999 RMK A01 T01560150  RH  096%=      5-min Rain = 0
KWT1 231046Z 35006KT 16/15 A2999 RMK A01 T01560150  RH  096%=      5-min Rain = 0
KWT1 231047Z 35005KT 16/15 A2999 RMK A01 T01560150  RH  096%=      5-min Rain = 0
KWT1 231048Z 35006KT 16/15 A2999 RMK A01 T01560150  RH  096%=      5-min Rain = 0
KWT1 231049Z 35006KT 16/15 A2998 RMK A01 T01560150  RH  096%=      5-min Rain = 0
KWT1 231050Z 35006KT 16/15 A2998 RMK A01 T01560150  RH  096%=      5-min Rain = 0
KWT1 231051Z 35006KT 16/15 A2998 RMK A01 T01560149  RH  096%=      5-min Rain = 0
KWT1 231052Z 35006KT 16/15 A2998 RMK A01 T01550149  RH  096%=      5-min Rain = 0
KWT1 231053Z 36007KT 16/15 A2998 RMK A01 T01550149  RH  096%=      5-min Rain = 0
KWT1 231054Z 36007KT 16/15 A2998 RMK A01 T01560149  RH  096%=      5-min Rain = 0
KWT1 231055Z 36006KT 16/15 A2998 RMK A01 T01550148  RH  096%=      5-min Rain = 0
KWT1 231056Z 01006KT 16/15 A2998 RMK A01 T01550149  RH  096%=      5-min Rain = 0
KWT1 231057Z 01007KT 16/15 A2998 RMK A01 T01550149  RH  096%=      5-min Rain = 0
KWT1 231058Z 02006KT 16/15 A2998 RMK A01 T01550149  RH  096%=      5-min Rain = 0
KWT1 231059Z 02005KT 16/15 A2998 RMK A01 T01550149  RH  096%=      5-min Rain = 0
KWT1 231100Z 00006KT 16/15 A2998 RMK A01 T01550149  RH  096%=      5-min Rain = 0
KWT1 231101Z 01006KT 16/15 A2998 RMK A01 T01550148  RH  096%=      5-min Rain = 0
KWT1 231102Z 01006KT 16/15 A2998 RMK A01 T01550148  RH  096%=      5-min Rain = 0
KWT1 231103Z 01004KT 15/15 A2999 RMK A01 T01540148  RH  096%=      5-min Rain = 0
KWT1 231104Z 01005KT 16/15 A2999 RMK A01 T01550148  RH  096%=      5-min Rain = 0
KWT1 231105Z 01005KT 16/15 A2999 RMK A01 T01550148  RH  096%=      5-min Rain = 0
KWT1 231106Z 01007KT 16/15 A2999 RMK A01 T01550148  RH  096%=      5-min Rain = 0
KWT1 231107Z 01007KT 16/15 A2999 RMK A01 T01550148  RH  096%=      5-min Rain = 0
KWT1 231108Z 02007KT 15/15 A2999 RMK A01 T01540148  RH  096%=      5-min Rain = 0
KWT1 231109Z 02006KT 16/15 A2998 RMK A01 T01550148  RH  096%=      5-min Rain = 0
KWT1 231110Z 02006KT 16/15 A2998 RMK A01 T01550148  RH  096%=      5-min Rain = 0
KWT1 231111Z 02006KT 15/15 A2998 RMK A01 T01540148  RH  096%=      5-min Rain = 0
KWT1 231112Z 03006KT 16/15 A2998 RMK A01 T01550148  RH  096%=      5-min Rain = 0
KWT1 231113Z 03004KT 15/15 A2998 RMK A01 T01540148  RH  096%=      5-min Rain = 0
KWT1 231114Z 02004KT 15/15 A2998 RMK A01 T01540148  RH  096%=      5-min Rain = 0
KWT1 231115Z 02004KT 16/15 A2998 RMK A01 T01550148  RH  096%=      5-min Rain = 0
KWT1 231116Z 03005KT 15/15 A2998 RMK A01 T01540148  RH  096%=      5-min Rain = 0
KWT1 231117Z 02005KT 15/15 A2998 RMK A01 T01540148  RH  096%=      5-min Rain = 0
KWT1 231118Z 02004KT 15/15 A2998 RMK A01 T01540148  RH  096%=      5-min Rain = 0
KWT1 231119Z 02004KT 16/15 A2998 RMK A01 T01550149  RH  096%=      5-min Rain = 0
KWT1 231120Z 02005KT 16/15 A2998 RMK A01 T01550149  RH  096%=      5-min Rain = 0
KWT1 231121Z 01006KT 15/15 A2999 RMK A01 T01540149  RH  096%=      5-min Rain = 0
KWT1 231122Z 01005KT 15/15 A2999 RMK A01 T01540148  RH  096%=      5-min Rain = 0
KWT1 231123Z 01005KT 16/15 A2999 RMK A01 T01550149  RH  096%=      5-min Rain = 0
KWT1 231124Z 00005KT 15/15 A2999 RMK A01 T01540148  RH  096%=      5-min Rain = 0
KWT1 231125Z 00006KT 16/15 A2999 RMK A01 T01550148  RH  096%=      5-min Rain = 0
KWT1 231126Z 00006KT 16/15 A2999 RMK A01 T01550148  RH  096%=      5-min Rain = 0
KWT1 231127Z 00006KT 15/15 A2999 RMK A01 T01540148  RH  096%=      5-min Rain = 0
KWT1 231128Z 00006KT 16/15 A2999 RMK A01 T01550148  RH  096%=      5-min Rain = 0
KWT1 231129Z 36006KT 16/15 A2999 RMK A01 T01550148  RH  096%=      5-min Rain = 0
KWT1 231130Z 00006KT 16/15 A2999 RMK A01 T01550148  RH  096%=      5-min Rain = 0
KWT1 231131Z 00006KT 15/15 A2999 RMK A01 T01540148  RH  096%=      5-min Rain = 0
KWT1 231132Z 00007KT 16/15 A2999 RMK A01 T01550148  RH  096%=      5-min Rain = 0
KWT1 231133Z 01006KT 16/15 A2999 RMK A01 T01550148  RH  096%=      5-min Rain = 0
KWT1 231134Z 00005KT 15/15 A2999 RMK A01 T01540148  RH  096%=      5-min Rain = 0
KWT1 231135Z 01005KT 16/15 A2999 RMK A01 T01550148  RH  096%=      5-min Rain = 0
KWT1 231136Z 01006KT 16/15 A2999 RMK A01 T01550148  RH  096%=      5-min Rain = 0
KWT1 231137Z 01006KT 16/15 A2999 RMK A01 T01550148  RH  096%=      5-min Rain = 0
KWT1 231138Z 01006KT 16/15 A2999 RMK A01 T01550148  RH  096%=      5-min Rain = 0
KWT1 231139Z 01005KT 15/15 A2999 RMK A01 T01540148  RH  096%=      5-min Rain = 0
KWT1 231140Z 01006KT 16/15 A2999 RMK A01 T01550148  RH  096%=      5-min Rain = 0
KWT1 231141Z 02006KT 16/15 A2999 RMK A01 T01550148  RH  096%=      5-min Rain = 0
KWT1 231142Z 01007KT 16/15 A2999 RMK A01 T01550148  RH  096%=      5-min Rain = 0
KWT1 231143Z 01006KT 16/15 A2999 RMK A01 T01550148  RH  096%=      5-min Rain = 0
KWT1 231144Z 02006KT 15/15 A2999 RMK A01 T01540148  RH  096%=      5-min Rain = 0
KWT1 231145Z 01007KT 15/15 A2999 RMK A01 T01540148  RH  096%=      5-min Rain = 0
KWT1 231146Z 02006KT 16/15 A2999 RMK A01 T01550148  RH  096%=      5-min Rain = 0
KWT1 231147Z 02006KT 16/15 A30 RMK A01 T01550148  RH  096%=      5-min Rain = 0
KWT1 231148Z 01007KT 15/15 A30 RMK A01 T01540148  RH  096%=      5-min Rain = 0
KWT1 231149Z 01006KT 15/15 A30 RMK A01 T01540148  RH  096%=      5-min Rain = 0
KWT1 231150Z 01006KT 16/15 A30 RMK A01 T01550148  RH  096%=      5-min Rain = 0
KWT1 231151Z 01006KT 16/15 A30 RMK A01 T01550148  RH  096%=      5-min Rain = 0
KWT1 231152Z 01006KT 16/15 A30 RMK A01 T01550148  RH  096%=      5-min Rain = 0
KWT1 231153Z 00007KT 15/15 A30 RMK A01 T01540148  RH  096%=      5-min Rain = 0
KWT1 231154Z 01007KT 16/15 A30 RMK A01 T01550148  RH  096%=      5-min Rain = 0
KWT1 231155Z 01006KT 15/15 A30 RMK A01 T01540148  RH  096%=      5-min Rain = 0
KWT1 231156Z 01008KT 15/15 A30 RMK A01 T01540148  RH  096%=      5-min Rain = 0
KWT1 231157Z 01008KT 15/15 A30 RMK A01 T01540148  RH  096%=      5-min Rain = 0
KWT1 231158Z 01008KT 15/15 A30 RMK A01 T01540148  RH  096%=      5-min Rain = 0
KWT1 231159Z 01008KT 15/15 A30 RMK A01 T01540147  RH  096%=      5-min Rain = 0
KWT1 231200Z 01008KT 15/15 A30 RMK A01 T01540148  RH  096%=      5-min Rain = 0
KWT1 231201Z 01006KT 15/15 A30 RMK A01 T01540147  RH  096%=      5-min Rain = 0
KWT1 231202Z 01007KT 15/15 A30 RMK A01 T01540148  RH  096%=      5-min Rain = 0
KWT1 231203Z 01007KT 15/15 A30 RMK A01 T01540148  RH  096%=      5-min Rain = 0
KWT1 231204Z 01006KT 15/15 A30 RMK A01 T01540147  RH  096%=      5-min Rain = 0
KWT1 231205Z 01007KT 15/15 A30 RMK A01 T01540148  RH  096%=      5-min Rain = 0
KWT1 231206Z 00007KT 15/15 A30 RMK A01 T01540147  RH  096%=      5-min Rain = 0
KWT1 231207Z 36008KT 15/15 A30 RMK A01 T01540147  RH  096%=      5-min Rain = 0
KWT1 231208Z 36006KT 15/15 A30 RMK A01 T01540147  RH  096%=      5-min Rain = 0
KWT1 231209Z 00009KT 15/15 A30 RMK A01 T01540147  RH  096%=      5-min Rain = 0
KWT1 231210Z 36008KT 15/15 A3001 RMK A01 T01540147  RH  096%=      5-min Rain = 0
KWT1 231211Z 35008KT 15/15 A3001 RMK A01 T01540147  RH  095%=      5-min Rain = 0
KWT1 231212Z 00008KT 15/15 A3001 RMK A01 T01540147  RH  095%=      5-min Rain = 0
KWT1 231213Z 00007KT 15/15 A3001 RMK A01 T01540146  RH  095%=      5-min Rain = 0
KWT1 231214Z 36007KT 15/15 A3001 RMK A01 T01540146  RH  095%=      5-min Rain = 0
KWT1 231215Z 01009KT 15/15 A3001 RMK A01 T01540147  RH  096%=      5-min Rain = 0
KWT1 231216Z 00010KT 15/15 A3001 RMK A01 T01540147  RH  096%=      5-min Rain = 0
KWT1 231217Z 00009KT 15/15 A3001 RMK A01 T01540147  RH  096%=      5-min Rain = 0
KWT1 231218Z 00010KT 15/15 A3001 RMK A01 T01530147  RH  096%=      5-min Rain = 0.01
KWT1 231219Z 00010KT 15/15 A3001 RMK A01 T01530147  RH  096%=      5-min Rain = 0
KWT1 231220Z 36010KT 15/15 A3001 RMK A01 T01530147  RH  097%=      5-min Rain = 0
KWT1 231221Z 36010KT 15/15 A3001 RMK A01 T01530148  RH  097%=      5-min Rain = 0
KWT1 231222Z 35009KT 15/15 A3001 RMK A01 T01520148  RH  097%=      5-min Rain = 0
KWT1 231223Z 34009KT 15/15 A3001 RMK A01 T01520148  RH  097%=      5-min Rain = 0
KWT1 231224Z 35009KT 15/15 A3001 RMK A01 T01520148  RH  097%=      5-min Rain = 0
KWT1 231225Z 34008KT 15/15 A3001 RMK A01 T01520148  RH  097%=      5-min Rain = 0
KWT1 231226Z 35009KT 15/15 A3001 RMK A01 T01520148  RH  097%=      5-min Rain = 0
KWT1 231227Z 34007KT 15/15 A3001 RMK A01 T01520148  RH  097%=      5-min Rain = 0
KWT1 231228Z 35007KT 15/15 A3001 RMK A01 T01520148  RH  097%=      5-min Rain = 0
KWT1 231229Z 34007KT 15/15 A3001 RMK A01 T01520148  RH  097%=      5-min Rain = 0
KWT1 231230Z 34007KT 15/15 A3001 RMK A01 T01520147  RH  097%=      5-min Rain = 0
KWT1 231231Z 35007KT 15/15 A3001 RMK A01 T01510147  RH  097%=      5-min Rain = 0
KWT1 231232Z 00006KT 15/15 A3001 RMK A01 T01510147  RH  097%=      5-min Rain = 0
KWT1 231233Z 00008KT 15/15 A3001 RMK A01 T01510147  RH  097%=      5-min Rain = 0
KWT1 231234Z 01007KT 15/15 A3001 RMK A01 T01510147  RH  097%=      5-min Rain = 0
KWT1 231235Z 01006KT 15/15 A3001 RMK A01 T01510147  RH  097%=      5-min Rain = 0.01
KWT1 231236Z 01006KT 15/15 A3001 RMK A01 T01510147  RH  097%=      5-min Rain = 0
KWT1 231237Z 02005KT 15/15 A3001 RMK A01 T01510147  RH  097%=      5-min Rain = 0
KWT1 231238Z 01006KT 15/15 A3001 RMK A01 T01510147  RH  097%=      5-min Rain = 0
KWT1 231239Z 01006KT 15/15 A3001 RMK A01 T01510147  RH  097%=      5-min Rain = 0
KWT1 231240Z 02007KT 15/15 A3001 RMK A01 T01510147  RH  097%=      5-min Rain = 0
KWT1 231241Z 02009KT 15/15 A3001 RMK A01 T01510147  RH  097%=      5-min Rain = 0
KWT1 231242Z 02008KT 15/15 A3001 RMK A01 T01510147  RH  097%=      5-min Rain = 0
KWT1 231243Z 02007KT 15/15 A3001 RMK A01 T01510147  RH  097%=      5-min Rain = 0
KWT1 231244Z 02007KT 15/15 A3001 RMK A01 T01510147  RH  098%=      5-min Rain = 0
KWT1 231245Z 02006KT 15/15 A3001 RMK A01 T01510147  RH  098%=      5-min Rain = 0
KWT1 231246Z 02006KT 15/15 A3001 RMK A01 T01510148  RH  098%=      5-min Rain = 0
KWT1 231247Z 02007KT 15/15 A3001 RMK A01 T01510148  RH  098%=      5-min Rain = 0
KWT1 231248Z 01007KT 15/15 A3001 RMK A01 T01510148  RH  098%=      5-min Rain = 0
KWT1 231249Z 02008KT 15/15 A3001 RMK A01 T01510148  RH  098%=      5-min Rain = 0
KWT1 231250Z 02007KT 15/15 A3001 RMK A01 T01510148  RH  098%=      5-min Rain = 0
KWT1 231251Z 02006KT 15/15 A3001 RMK A01 T01510148  RH  098%=      5-min Rain = 0
KWT1 231252Z 02007KT 15/15 A3001 RMK A01 T01510148  RH  098%=      5-min Rain = 0
KWT1 231253Z 02007KT 15/15 A3001 RMK A01 T01510148  RH  098%=      5-min Rain = 0
KWT1 231254Z 03007KT 15/15 A3001 RMK A01 T01510148  RH  098%=      5-min Rain = 0
KWT1 231255Z 02008KT 15/15 A3001 RMK A01 T01510148  RH  098%=      5-min Rain = 0
KWT1 231256Z 03008KT 15/15 A3001 RMK A01 T01510148  RH  098%=      5-min Rain = 0
KWT1 231257Z 02009KT 15/15 A3001 RMK A01 T01510148  RH  098%=      5-min Rain = 0
KWT1 231258Z 02007KT 15/15 A3001 RMK A01 T01510148  RH  098%=      5-min Rain = 0
KWT1 231259Z 02006KT 15/15 A3001 RMK A01 T01510148  RH  098%=      5-min Rain = 0
KWT1 231300Z 02007KT 15/15 A3001 RMK A01 T01510148  RH  098%=      5-min Rain = 0
KWT1 231301Z 02008KT 15/15 A3001 RMK A01 T01510148  RH  098%=      5-min Rain = 0
KWT1 231302Z 02007KT 15/15 A3001 RMK A01 T01510148  RH  098%=      5-min Rain = 0
KWT1 231303Z 02007KT 15/15 A3002 RMK A01 T01510148  RH  098%=      5-min Rain = 0
KWT1 231304Z 01006KT 15/15 A3002 RMK A01 T01510148  RH  098%=      5-min Rain = 0
KWT1 231305Z 01007KT 15/15 A3002 RMK A01 T01510148  RH  098%=      5-min Rain = 0
KWT1 231306Z 01007KT 15/15 A3002 RMK A01 T01510148  RH  098%=      5-min Rain = 0
KWT1 231307Z 02007KT 15/15 A3002 RMK A01 T01500147  RH  098%=      5-min Rain = 0
KWT1 231308Z 02008KT 15/15 A3002 RMK A01 T01500147  RH  098%=      5-min Rain = 0
KWT1 231309Z 02006KT 15/15 A3002 RMK A01 T01500147  RH  098%=      5-min Rain = 0
KWT1 231310Z 01006KT 15/15 A3002 RMK A01 T01510147  RH  098%=      5-min Rain = 0
KWT1 231311Z 01007KT 15/15 A3002 RMK A01 T01500147  RH  098%=      5-min Rain = 0
KWT1 231312Z 01008KT 15/15 A3002 RMK A01 T01510147  RH  098%=      5-min Rain = 0
KWT1 231313Z 01008KT 15/15 A3002 RMK A01 T01500147  RH  098%=      5-min Rain = 0
KWT1 231314Z 02008KT 15/15 A3002 RMK A01 T01500147  RH  098%=      5-min Rain = 0
KWT1 231315Z 02007KT 15/15 A3002 RMK A01 T01500146  RH  097%=      5-min Rain = 0
KWT1 231316Z 02008KT 15/15 A3003 RMK A01 T01500146  RH  097%=      5-min Rain = 0
KWT1 231317Z 02008KT 15/15 A3003 RMK A01 T01500146  RH  097%=      5-min Rain = 0
KWT1 231318Z 02007KT 15/15 A3003 RMK A01 T01500146  RH  097%=      5-min Rain = 0
KWT1 231319Z 02008KT 15/15 A3003 RMK A01 T01500146  RH  097%=      5-min Rain = 0
KWT1 231320Z 02007KT 15/15 A3003 RMK A01 T01500146  RH  097%=      5-min Rain = 0
KWT1 231321Z 03006KT 15/15 A3003 RMK A01 T01500146  RH  097%=      5-min Rain = 0
KWT1 231322Z 02006KT 15/15 A3002 RMK A01 T01500145  RH  097%=      5-min Rain = 0
KWT1 231323Z 02007KT 15/15 A3002 RMK A01 T01500146  RH  097%=      5-min Rain = 0
KWT1 231324Z 02007KT 15/15 A3002 RMK A01 T01500146  RH  097%=      5-min Rain = 0
KWT1 231325Z 03008KT 15/15 A3002 RMK A01 T01500146  RH  097%=      5-min Rain = 0
KWT1 231326Z 02007KT 15/15 A3002 RMK A01 T01500146  RH  097%=      5-min Rain = 0
KWT1 231327Z 03006KT 15/15 A3002 RMK A01 T01500146  RH  097%=      5-min Rain = 0
KWT1 231328Z 03005KT 15/15 A3002 RMK A01 T01500146  RH  097%=      5-min Rain = 0
KWT1 231329Z 02005KT 15/15 A3002 RMK A01 T01510147  RH  097%=      5-min Rain = 0
KWT1 231330Z 01006KT 15/15 A3002 RMK A01 T01510147  RH  098%=      5-min Rain = 0
KWT1 231331Z 02005KT 15/15 A3002 RMK A01 T01510147  RH  098%=      5-min Rain = 0
KWT1 231332Z 02007KT 15/15 A3002 RMK A01 T01510148  RH  098%=      5-min Rain = 0
KWT1 231333Z 01006KT 15/15 A3002 RMK A01 T01510147  RH  098%=      5-min Rain = 0
KWT1 231334Z 01006KT 15/15 A3002 RMK A01 T01510147  RH  098%=      5-min Rain = 0
KWT1 231335Z 01006KT 15/15 A3003 RMK A01 T01510147  RH  097%=      5-min Rain = 0
KWT1 231336Z 02005KT 15/15 A3003 RMK A01 T01510147  RH  097%=      5-min Rain = 0
KWT1 231337Z 01006KT 15/15 A3003 RMK A01 T01510147  RH  097%=      5-min Rain = 0
KWT1 231338Z 01005KT 15/15 A3003 RMK A01 T01510147  RH  097%=      5-min Rain = 0
KWT1 231339Z 35006KT 15/15 A3003 RMK A01 T01510147  RH  097%=      5-min Rain = 0
KWT1 231340Z 00005KT 15/15 A3003 RMK A01 T01510146  RH  097%=      5-min Rain = 0
KWT1 231341Z 00004KT 15/15 A3003 RMK A01 T01510146  RH  097%=      5-min Rain = 0
KWT1 231342Z 35004KT 15/15 A3003 RMK A01 T01510146  RH  097%=      5-min Rain = 0
KWT1 231343Z 35003KT 15/15 A3004 RMK A01 T01510146  RH  097%=      5-min Rain = 0
KWT1 231344Z 36004KT 15/15 A3004 RMK A01 T01510146  RH  097%=      5-min Rain = 0
KWT1 231345Z 35006KT 15/15 A3004 RMK A01 T01510146  RH  097%=      5-min Rain = 0
KWT1 231346Z 00010KT 15/15 A3004 RMK A01 T01510145  RH  096%=      5-min Rain = 0
KWT1 231347Z 00009KT 15/14 A3003 RMK A01 T01500144  RH  096%=      5-min Rain = 0
KWT1 231348Z 01010KT 15/14 A3003 RMK A01 T01500143  RH  096%=      5-min Rain = 0
KWT1 231349Z 01010KT 15/14 A3003 RMK A01 T01500143  RH  096%=      5-min Rain = 0
KWT1 231350Z 01009KT 15/14 A3003 RMK A01 T01500143  RH  096%=      5-min Rain = 0
KWT1 231351Z 01008KT 15/14 A3003 RMK A01 T01500143  RH  096%=      5-min Rain = 0
KWT1 231352Z 01008KT 15/14 A3003 RMK A01 T01500143  RH  096%=      5-min Rain = 0
KWT1 231353Z 01006KT 15/14 A3003 RMK A01 T01490143  RH  096%=      5-min Rain = 0
KWT1 231354Z 01008KT 15/14 A3003 RMK A01 T01490143  RH  096%=      5-min Rain = 0
KWT1 231355Z 01009KT 15/14 A3003 RMK A01 T01490143  RH  096%=      5-min Rain = 0
KWT1 231356Z 02008KT 15/14 A3003 RMK A01 T01490143  RH  096%=      5-min Rain = 0
KWT1 231357Z 01006KT 15/14 A3003 RMK A01 T01490142  RH  096%=      5-min Rain = 0
KWT1 231358Z 01006KT 15/14 A3003 RMK A01 T01490142  RH  096%=      5-min Rain = 0
KWT1 231359Z 02008KT 15/14 A3003 RMK A01 T01490142  RH  096%=      5-min Rain = 0
KWT1 231400Z 02008KT 15/14 A3003 RMK A01 T01490142  RH  096%=      5-min Rain = 0
KWT1 231401Z 01009KT 15/14 A3003 RMK A01 T01490142  RH  096%=      5-min Rain = 0
KWT1 231402Z 01008KT 15/14 A3003 RMK A01 T01490142  RH  095%=      5-min Rain = 0
KWT1 231403Z 01006KT 15/14 A3003 RMK A01 T01490142  RH  095%=      5-min Rain = 0
KWT1 231404Z 02006KT 15/14 A3003 RMK A01 T01490142  RH  095%=      5-min Rain = 0
KWT1 231405Z 01008KT 15/14 A3004 RMK A01 T01490142  RH  096%=      5-min Rain = 0
KWT1 231406Z 02008KT 15/14 A3004 RMK A01 T01490142  RH  095%=      5-min Rain = 0
KWT1 231407Z 02007KT 15/14 A3004 RMK A01 T01490142  RH  095%=      5-min Rain = 0
KWT1 231408Z 01007KT 15/14 A3004 RMK A01 T01480141  RH  096%=      5-min Rain = 0
KWT1 231409Z 02008KT 15/14 A3003 RMK A01 T01490142  RH  096%=      5-min Rain = 0
KWT1 231410Z 01008KT 15/14 A3003 RMK A01 T01480141  RH  095%=      5-min Rain = 0
KWT1 231411Z 01007KT 15/14 A3003 RMK A01 T01480141  RH  095%=      5-min Rain = 0
KWT1 231412Z 01008KT 15/14 A3003 RMK A01 T01490142  RH  096%=      5-min Rain = 0
KWT1 231413Z 00008KT 15/14 A3003 RMK A01 T01490142  RH  096%=      5-min Rain = 0
KWT1 231414Z 01009KT 15/14 A3003 RMK A01 T01480142  RH  096%=      5-min Rain = 0
KWT1 231415Z 00009KT 15/14 A3003 RMK A01 T01490142  RH  096%=      5-min Rain = 0
KWT1 231416Z 36009KT 15/14 A3004 RMK A01 T01480142  RH  096%=      5-min Rain = 0
KWT1 231417Z 35010KT 15/14 A3004 RMK A01 T01490142  RH  096%=      5-min Rain = 0
KWT1 231418Z 35009KT 15/14 A3004 RMK A01 T01480142  RH  096%=      5-min Rain = 0
KWT1 231419Z 36010KT 15/14 A3004 RMK A01 T01480141  RH  096%=      5-min Rain = 0
KWT1 231420Z 36010KT 15/14 A3004 RMK A01 T01480140  RH  095%=      5-min Rain = 0
KWT1 231421Z 36008KT 15/14 A3004 RMK A01 T01470140  RH  095%=      5-min Rain = 0
KWT1 231422Z 36009KT 15/14 A3004 RMK A01 T01470140  RH  096%=      5-min Rain = 0
KWT1 231423Z 36010KT 15/14 A3004 RMK A01 T01470139  RH  095%=      5-min Rain = 0
KWT1 231424Z 35009KT 15/14 A3004 RMK A01 T01470139  RH  095%=      5-min Rain = 0
KWT1 231425Z 00009KT 15/14 A3004 RMK A01 T01470140  RH  095%=      5-min Rain = 0
KWT1 231426Z 36010KT 15/14 A3004 RMK A01 T01470140  RH  096%=      5-min Rain = 0
KWT1 231427Z 36009KT 15/14 A3005 RMK A01 T01470140  RH  096%=      5-min Rain = 0
KWT1 231428Z 35008KT 15/14 A3005 RMK A01 T01460140  RH  096%=      5-min Rain = 0
KWT1 231429Z 36008KT 15/14 A3005 RMK A01 T01460140  RH  096%=      5-min Rain = 0
KWT1 231430Z 36008KT 15/14 A3005 RMK A01 T01460141  RH  097%=      5-min Rain = 0
KWT1 231431Z 35010KT 15/14 A3005 RMK A01 T01460141  RH  097%=      5-min Rain = 0
KWT1 231432Z 34010KT 15/14 A3005 RMK A01 T01460141  RH  097%=      5-min Rain = 0
KWT1 231433Z 35010KT 15/14 A3005 RMK A01 T01460141  RH  097%=      5-min Rain = 0
KWT1 231434Z 35010KT 15/14 A3005 RMK A01 T01460142  RH  097%=      5-min Rain = 0
KWT1 231435Z 35011KT 15/14 A3005 RMK A01 T01450141  RH  097%=      5-min Rain = 0
KWT1 231436Z 35011KT 15/14 A3005 RMK A01 T01450141  RH  098%=      5-min Rain = 0
KWT1 231437Z 35009KT 15/14 A3005 RMK A01 T01450141  RH  098%=      5-min Rain = 0
KWT1 231438Z 35010KT 15/14 A3005 RMK A01 T01450142  RH  098%=      5-min Rain = 0
KWT1 231439Z 35010KT 14/14 A3006 RMK A01 T01440141  RH  098%=      5-min Rain = 0
KWT1 231440Z 35008KT 14/14 A3006 RMK A01 T01440141  RH  098%=      5-min Rain = 0
KWT1 231441Z 34010KT 15/14 A3006 RMK A01 T01450142  RH  098%=      5-min Rain = 0
KWT1 231442Z 34011KT 14/14 A3006 RMK A01 T01440142  RH  098%=      5-min Rain = 0
KWT1 231443Z 34009KT 15/14 A3006 RMK A01 T01450142  RH  098%=      5-min Rain = 0
KWT1 231444Z 34009KT 15/14 A3006 RMK A01 T01450142  RH  098%=      5-min Rain = 0
KWT1 231445Z 35009KT 14/14 A3006 RMK A01 T01440142  RH  098%=      5-min Rain = 0
KWT1 231446Z 35012KT 14/14 A3006 RMK A01 T01440142  RH  098%=      5-min Rain = 0
KWT1 231447Z 35011KT 14/14 A3006 RMK A01 T01440142  RH  098%=      5-min Rain = 0
KWT1 231448Z 35010KT 14/14 A3006 RMK A01 T01440142  RH  098%=      5-min Rain = 0
KWT1 231449Z 35008KT 14/14 A3006 RMK A01 T01440142  RH  098%=      5-min Rain = 0
KWT1 231450Z 35008KT 14/14 A3006 RMK A01 T01440142  RH  098%=      5-min Rain = 0
KWT1 231451Z 35008KT 14/14 A3006 RMK A01 T01440142  RH  098%=      5-min Rain = 0
KWT1 231452Z 35008KT 14/14 A3006 RMK A01 T01440142  RH  098%=      5-min Rain = 0
KWT1 231453Z 35008KT 15/14 A3006 RMK A01 T01450142  RH  098%=      5-min Rain = 0
KWT1 231454Z 35009KT 14/14 A3006 RMK A01 T01440142  RH  099%=      5-min Rain = 0
KWT1 231455Z 36008KT 14/14 A3006 RMK A01 T01440142  RH  098%=      5-min Rain = 0
KWT1 231456Z 00008KT 15/14 A3006 RMK A01 T01450142  RH  099%=      5-min Rain = 0
KWT1 231457Z 36012KT 15/14 A3006 RMK A01 T01450143  RH  098%=      5-min Rain = 0
KWT1 231458Z 00010KT 15/14 A3006 RMK A01 T01450142  RH  098%=      5-min Rain = 0
KWT1 231459Z 36011KT 15/14 A3006 RMK A01 T01450142  RH  098%=      5-min Rain = 0
KWT1 231500Z 00010KT 15/14 A3006 RMK A01 T01450142  RH  098%=      5-min Rain = 0
KWT1 231501Z 00010KT 15/14 A3006 RMK A01 T01450142  RH  098%=      5-min Rain = 0
KWT1 231502Z 01012KT 15/14 A3006 RMK A01 T01450142  RH  098%=      5-min Rain = 0
KWT1 231503Z 36009KT 15/14 A3006 RMK A01 T01450142  RH  098%=      5-min Rain = 0
KWT1 231504Z 36009KT 15/14 A3006 RMK A01 T01450142  RH  098%=      5-min Rain = 0
KWT1 231505Z 36011KT 15/14 A3006 RMK A01 T01460143  RH  098%=      5-min Rain = 0
KWT1 231506Z 00010KT 15/14 A3006 RMK A01 T01460143  RH  098%=      5-min Rain = 0
KWT1 231507Z 00010KT 15/14 A3006 RMK A01 T01460143  RH  098%=      5-min Rain = 0
KWT1 231508Z 00011KT 15/14 A3006 RMK A01 T01460143  RH  098%=      5-min Rain = 0
KWT1 231509Z 00011KT 15/14 A3006 RMK A01 T01460143  RH  098%=      5-min Rain = 0
KWT1 231510Z 01011KT 15/14 A3006 RMK A01 T01460143  RH  098%=      5-min Rain = 0
KWT1 231511Z 01010KT 15/14 A3006 RMK A01 T01460143  RH  098%=      5-min Rain = 0
KWT1 231512Z 01010KT 15/14 A3006 RMK A01 T01460143  RH  098%=      5-min Rain = 0
KWT1 231513Z 01009KT 15/14 A3006 RMK A01 T01460143  RH  098%=      5-min Rain = 0
KWT1 231514Z 01009KT 15/14 A3006 RMK A01 T01460143  RH  098%=      5-min Rain = 0
KWT1 231515Z 01010KT 15/14 A3006 RMK A01 T01460143  RH  098%=      5-min Rain = 0
KWT1 231516Z 00009KT 15/14 A3006 RMK A01 T01460143  RH  098%=      5-min Rain = 0
KWT1 231517Z 02007KT 15/14 A3006 RMK A01 T01460144  RH  098%=      5-min Rain = 0
KWT1 231518Z 02008KT 15/14 A3006 RMK A01 T01460143  RH  098%=      5-min Rain = 0
KWT1 231519Z 02006KT 15/14 A3006 RMK A01 T01460143  RH  098%=      5-min Rain = 0
KWT1 231520Z 03006KT 15/14 A3006 RMK A01 T01460143  RH  098%=      5-min Rain = 0
KWT1 231521Z 01006KT 15/14 A3006 RMK A01 T01460143  RH  098%=      5-min Rain = 0
KWT1 231522Z 03004KT 15/14 A3006 RMK A01 T01460143  RH  098%=      5-min Rain = 0
KWT1 231523Z 04007KT 15/14 A3006 RMK A01 T01470144  RH  098%=      5-min Rain = 0
KWT1 231524Z 04007KT 15/14 A3006 RMK A01 T01470144  RH  098%=      5-min Rain = 0
KWT1 231525Z 04007KT 15/14 A3006 RMK A01 T01470144  RH  098%=      5-min Rain = 0
KWT1 231526Z 05007KT 15/14 A3005 RMK A01 T01470144  RH  098%=      5-min Rain = 0
KWT1 231527Z 05008KT 15/15 A3005 RMK A01 T01480145  RH  098%=      5-min Rain = 0
KWT1 231528Z 04008KT 15/15 A3005 RMK A01 T01480145  RH  098%=      5-min Rain = 0
KWT1 231529Z 04011KT 15/15 A3004 RMK A01 T01480145  RH  098%=      5-min Rain = 0
KWT1 231530Z 04008KT 15/15 A3004 RMK A01 T01480145  RH  098%=      5-min Rain = 0
KWT1 231531Z 03008KT 15/15 A3004 RMK A01 T01490146  RH  098%=      5-min Rain = 0
KWT1 231532Z 03011KT 15/15 A3004 RMK A01 T01480146  RH  098%=      5-min Rain = 0
KWT1 231533Z 04011KT 15/15 A3004 RMK A01 T01490146  RH  098%=      5-min Rain = 0
KWT1 231534Z 04010KT 15/15 A3003 RMK A01 T01480146  RH  098%=      5-min Rain = 0
KWT1 231535Z 03010KT 15/15 A3003 RMK A01 T01480145  RH  098%=      5-min Rain = 0
KWT1 231536Z 03009KT 15/15 A3003 RMK A01 T01480145  RH  098%=      5-min Rain = 0
KWT1 231537Z 03010KT 15/15 A3003 RMK A01 T01480145  RH  098%=      5-min Rain = 0
KWT1 231538Z 03008KT 15/15 A3003 RMK A01 T01480146  RH  098%=      5-min Rain = 0
KWT1 231539Z 04008KT 15/15 A3003 RMK A01 T01490147  RH  098%=      5-min Rain = 0
KWT1 231540Z 04009KT 15/15 A3003 RMK A01 T01490147  RH  098%=      5-min Rain = 0
KWT1 231541Z 05008KT 15/15 A3003 RMK A01 T01490146  RH  098%=      5-min Rain = 0
KWT1 231542Z 05010KT 15/15 A3003 RMK A01 T01490147  RH  098%=      5-min Rain = 0
KWT1 231543Z 05012KT 15/15 A3002 RMK A01 T01500147  RH  098%=      5-min Rain = 0
KWT1 231544Z 06008KT 15/15 A3002 RMK A01 T01500147  RH  098%=      5-min Rain = 0
KWT1 231545Z 06009KT 15/15 A3002 RMK A01 T01500147  RH  098%=      5-min Rain = 0
KWT1 231546Z 06009KT 15/15 A3002 RMK A01 T01500147  RH  098%=      5-min Rain = 0
KWT1 231547Z 06012KT 15/15 A3001 RMK A01 T01500147  RH  098%=      5-min Rain = 0
KWT1 231548Z 06011KT 15/15 A3001 RMK A01 T01500147  RH  098%=      5-min Rain = 0
KWT1 231549Z 06010KT 15/15 A3001 RMK A01 T01500147  RH  098%=      5-min Rain = 0
KWT1 231550Z 05011KT 15/15 A3001 RMK A01 T01510148  RH  098%=      5-min Rain = 0.01
KWT1 231551Z 06009KT 15/15 A3001 RMK A01 T01510148  RH  098%=      5-min Rain = 0
KWT1 231552Z 06009G14KT 15/15 A3001 RMK A01 T01520149  RH  098%=      5-min Rain = 0
KWT1 231553Z 05011KT 15/15 A3001 RMK A01 T01540150  RH  098%=      5-min Rain = 0
KWT1 231554Z 05011KT 15/15 A3001 RMK A01 T01540150  RH  098%=      5-min Rain = 0
KWT1 231555Z 05009KT 16/15 A3001 RMK A01 T01550152  RH  098%=      5-min Rain = 0
KWT1 231556Z 05009KT 16/15 A3001 RMK A01 T01560153  RH  098%=      5-min Rain = 0
KWT1 231557Z 06010KT 16/15 A3001 RMK A01 T01570153  RH  097%=      5-min Rain = 0
KWT1 231558Z 06009KT 16/15 A3001 RMK A01 T01590154  RH  097%=      5-min Rain = 0
KWT1 231559Z 06008KT 16/16 A3002 RMK A01 T01610156  RH  097%=      5-min Rain = 0
KWT1 231600Z 06007KT 16/16 A3002 RMK A01 T01630156  RH  096%=      5-min Rain = 0
KWT1 231601Z 07007KT 16/16 A3002 RMK A01 T01640157  RH  095%=      5-min Rain = 0
KWT1 231602Z 07010KT 17/16 A3002 RMK A01 T01670160  RH  095%=      5-min Rain = 0
KWT1 231603Z 07008KT 17/16 A3002 RMK A01 T01680159  RH  094%=      5-min Rain = 0
KWT1 231604Z 07009KT 17/16 A3002 RMK A01 T01690158  RH  094%=      5-min Rain = 0
KWT1 231605Z 05007KT 17/16 A3002 RMK A01 T01700160  RH  094%=      5-min Rain = 0
KWT1 231606Z 06008KT 17/16 A3002 RMK A01 T01720164  RH  095%=      5-min Rain = 0
KWT1 231607Z 05009KT 17/16 A3002 RMK A01 T01720161  RH  093%=      5-min Rain = 0
KWT1 231608Z 06008KT 17/16 A3002 RMK A01 T01730163  RH  094%=      5-min Rain = 0
KWT1 231609Z 04009KT 17/16 A3002 RMK A01 T01730163  RH  093%=      5-min Rain = 0
KWT1 231610Z 04008KT 17/16 A3002 RMK A01 T01740163  RH  093%=      5-min Rain = 0
KWT1 231611Z 03008KT 17/16 A3002 RMK A01 T01740163  RH  093%=      5-min Rain = 0
KWT1 231612Z 05008KT 17/16 A3002 RMK A01 T01740160  RH  091%=      5-min Rain = 0
KWT1 231613Z 04008KT 17/16 A3002 RMK A01 T01730162  RH  093%=      5-min Rain = 0
KWT1 231614Z 04009KT 18/16 A3002 RMK A01 T01750164  RH  093%=      5-min Rain = 0
KWT1 231615Z 05010KT 18/16 A3002 RMK A01 T01750161  RH  091%=      5-min Rain = 0
KWT1 231616Z 06009KT 18/16 A3002 RMK A01 T01750164  RH  093%=      5-min Rain = 0
KWT1 231617Z 06011KT 18/16 A3002 RMK A01 T01770164  RH  092%=      5-min Rain = 0
KWT1 231618Z 06009KT 18/16 A3003 RMK A01 T01760161  RH  090%=      5-min Rain = 0
KWT1 231619Z 04009KT 18/16 A3003 RMK A01 T01760162  RH  092%=      5-min Rain = 0
KWT1 231620Z 05008KT 18/16 A3003 RMK A01 T01770163  RH  091%=      5-min Rain = 0
KWT1 231621Z 04009KT 18/17 A3003 RMK A01 T01790165  RH  091%=      5-min Rain = 0
KWT1 231622Z 04009KT 18/16 A3003 RMK A01 T01800164  RH  090%=      5-min Rain = 0
KWT1 231623Z 05008KT 18/16 A3003 RMK A01 T01800159  RH  088%=      5-min Rain = 0
KWT1 231624Z 06009KT 18/16 A3003 RMK A01 T01780160  RH  089%=      5-min Rain = 0
KWT1 231625Z 06009KT 18/16 A3003 RMK A01 T01790163  RH  090%=      5-min Rain = 0
KWT1 231626Z 06009KT 18/16 A3003 RMK A01 T01810161  RH  088%=      5-min Rain = 0
KWT1 231627Z 06008KT 18/16 A3003 RMK A01 T01820161  RH  087%=      5-min Rain = 0
KWT1 231628Z 06009KT 18/16 A3003 RMK A01 T01820159  RH  087%=      5-min Rain = 0
KWT1 231629Z 06008KT 18/16 A3003 RMK A01 T01830161  RH  087%=      5-min Rain = 0
KWT1 231630Z 05008KT 18/16 A3003 RMK A01 T01840163  RH  088%=      5-min Rain = 0
KWT1 231631Z 05008KT 19/17 A3003 RMK A01 T01860166  RH  088%=      5-min Rain = 0
KWT1 231632Z 06011KT 19/16 A3004 RMK A01 T01870163  RH  086%=      5-min Rain = 0
KWT1 231633Z 06010KT 19/16 A3004 RMK A01 T01860160  RH  085%=      5-min Rain = 0
KWT1 231634Z 06009KT 18/16 A3004 RMK A01 T01830158  RH  085%=      5-min Rain = 0
KWT1 231635Z 05008KT 18/16 A3004 RMK A01 T01810159  RH  087%=      5-min Rain = 0
KWT1 231636Z 05009KT 18/16 A3004 RMK A01 T01810160  RH  087%=      5-min Rain = 0
KWT1 231637Z 05008KT 18/16 A3004 RMK A01 T01820160  RH  087%=      5-min Rain = 0
KWT1 231638Z 06011KT 18/16 A3004 RMK A01 T01830160  RH  087%=      5-min Rain = 0
KWT1 231639Z 07011KT 18/16 A3004 RMK A01 T01820155  RH  084%=      5-min Rain = 0
KWT1 231640Z 07011KT 18/16 A3004 RMK A01 T01810155  RH  085%=      5-min Rain = 0
KWT1 231641Z 06012KT 18/16 A3004 RMK A01 T01810155  RH  085%=      5-min Rain = 0
KWT1 231642Z 06011KT 18/16 A3004 RMK A01 T01790156  RH  086%=      5-min Rain = 0
KWT1 231643Z 06011KT 18/16 A3004 RMK A01 T01790157  RH  087%=      5-min Rain = 0
KWT1 231644Z 06010KT 18/15 A3004 RMK A01 T01800152  RH  084%=      5-min Rain = 0
KWT1 231645Z 06009KT 18/15 A3004 RMK A01 T01800153  RH  084%=      5-min Rain = 0
KWT1 231646Z 05011KT 18/16 A3004 RMK A01 T01800156  RH  086%=      5-min Rain = 0
KWT1 231647Z 05009KT 18/16 A3004 RMK A01 T01810157  RH  086%=      5-min Rain = 0
KWT1 231648Z 05009KT 18/16 A3004 RMK A01 T01810155  RH  085%=      5-min Rain = 0
KWT1 231649Z 06009KT 18/16 A3004 RMK A01 T01810155  RH  084%=      5-min Rain = 0
KWT1 231650Z 05010KT 18/15 A3004 RMK A01 T01810154  RH  084%=      5-min Rain = 0
KWT1 231651Z 05010KT 18/16 A3004 RMK A01 T01810155  RH  085%=      5-min Rain = 0
KWT1 231652Z 05009KT 18/15 A3004 RMK A01 T01800154  RH  084%=      5-min Rain = 0
KWT1 231653Z 05009KT 18/16 A3004 RMK A01 T01800155  RH  085%=      5-min Rain = 0
KWT1 231654Z 06009KT 18/16 A3004 RMK A01 T01810155  RH  085%=      5-min Rain = 0
KWT1 231655Z 06009KT 18/16 A3004 RMK A01 T01810156  RH  085%=      5-min Rain = 0
KWT1 231656Z 06008KT 18/15 A3004 RMK A01 T01790153  RH  084%=      5-min Rain = 0
KWT1 231657Z 06008KT 18/15 A3004 RMK A01 T01780154  RH  086%=      5-min Rain = 0
KWT1 231658Z 05010KT 18/16 A3004 RMK A01 T01780156  RH  087%=      5-min Rain = 0
KWT1 231659Z 05010KT 18/15 A3004 RMK A01 T01780154  RH  086%=      5-min Rain = 0
KWT1 231700Z 05009KT 18/16 A3004 RMK A01 T01780155  RH  086%=      5-min Rain = 0
KWT1 231701Z 05008KT 18/15 A3004 RMK A01 T01780154  RH  086%=      5-min Rain = 0
KWT1 231702Z 04008KT 18/15 A3004 RMK A01 T01780153  RH  085%=      5-min Rain = 0
KWT1 231703Z 06007KT 18/15 A3004 RMK A01 T01780154  RH  086%=      5-min Rain = 0
KWT1 231704Z 06007KT 18/16 A3004 RMK A01 T01800160  RH  088%=      5-min Rain = 0
KWT1 231705Z 06008KT 18/16 A3004 RMK A01 T01840161  RH  086%=      5-min Rain = 0
KWT1 231706Z 05006KT 19/16 A3004 RMK A01 T01860162  RH  086%=      5-min Rain = 0
KWT1 231707Z 06010KT 19/16 A3004 RMK A01 T01880161  RH  084%=      5-min Rain = 0
KWT1 231708Z 06010KT 19/16 A3004 RMK A01 T01870157  RH  082%=      5-min Rain = 0
KWT1 231709Z 06008KT 19/16 A3004 RMK A01 T01860155  RH  082%=      5-min Rain = 0
KWT1 231710Z 07008G13KT 19/16 A3004 RMK A01 T01850160  RH  085%=      5-min Rain = 0
KWT1 231711Z 06010KT 19/16 A3004 RMK A01 T01870158  RH  084%=      5-min Rain = 0
KWT1 231712Z 06008KT 19/16 A3004 RMK A01 T01880156  RH  082%=      5-min Rain = 0
KWT1 231713Z 06009KT 19/16 A3004 RMK A01 T01880157  RH  082%=      5-min Rain = 0
KWT1 231714Z 07007KT 19/16 A3004 RMK A01 T01880156  RH  081%=      5-min Rain = 0
KWT1 231715Z 06008KT 19/16 A3004 RMK A01 T01870157  RH  083%=      5-min Rain = 0
KWT1 231716Z 08009KT 19/16 A3004 RMK A01 T01890157  RH  082%=      5-min Rain = 0
KWT1 231717Z 08009KT 19/15 A3004 RMK A01 T01880152  RH  079%=      5-min Rain = 0
KWT1 231718Z 07008KT 19/16 A3004 RMK A01 T01870157  RH  083%=      5-min Rain = 0
KWT1 231719Z 06009KT 19/15 A3004 RMK A01 T01870154  RH  081%=      5-min Rain = 0
KWT1 231720Z 06009KT 19/15 A3004 RMK A01 T01870154  RH  081%=      5-min Rain = 0
KWT1 231721Z 08009KT 19/16 A3004 RMK A01 T01860157  RH  083%=      5-min Rain = 0
KWT1 231722Z 09010KT 19/16 A3004 RMK A01 T01890155  RH  081%=      5-min Rain = 0
KWT1 231723Z 08010KT 19/16 A3004 RMK A01 T01890155  RH  081%=      5-min Rain = 0
KWT1 231724Z 09008KT 19/16 A3004 RMK A01 T01900157  RH  081%=      5-min Rain = 0
KWT1 231725Z 08007KT 19/16 A3004 RMK A01 T01900155  RH  080%=      5-min Rain = 0
KWT1 231726Z 06007KT 19/16 A3003 RMK A01 T01890158  RH  082%=      5-min Rain = 0
KWT1 231727Z 06008KT 19/16 A3003 RMK A01 T01890158  RH  082%=      5-min Rain = 0
KWT1 231728Z 05009KT 19/16 A3003 RMK A01 T01880157  RH  082%=      5-min Rain = 0
KWT1 231729Z 05009KT 19/16 A3003 RMK A01 T01870155  RH  082%=      5-min Rain = 0
KWT1 231730Z 07010KT 19/15 A3003 RMK A01 T01860152  RH  081%=      5-min Rain = 0
KWT1 231731Z 06009KT 19/15 A3004 RMK A01 T01850152  RH  081%=      5-min Rain = 0
KWT1 231732Z 06008KT 19/16 A3004 RMK A01 T01860155  RH  082%=      5-min Rain = 0
KWT1 231733Z 07009KT 19/16 A3004 RMK A01 T01880155  RH  081%=      5-min Rain = 0
KWT1 231734Z 07007KT 19/15 A3004 RMK A01 T01880153  RH  080%=      5-min Rain = 0
KWT1 231735Z 08007KT 19/15 A3004 RMK A01 T01880153  RH  080%=      5-min Rain = 0
KWT1 231736Z 08006KT 19/15 A3004 RMK A01 T01860153  RH  081%=      5-min Rain = 0
KWT1 231737Z 09005KT 18/15 A3004 RMK A01 T01830151  RH  081%=      5-min Rain = 0
KWT1 231738Z 08004KT 18/15 A3004 RMK A01 T01820152  RH  083%=      5-min Rain = 0
KWT1 231739Z 06005KT 18/16 A3004 RMK A01 T01820155  RH  084%=      5-min Rain = 0
KWT1 231740Z 07007KT 19/16 A3004 RMK A01 T01850160  RH  085%=      5-min Rain = 0
KWT1 231741Z 08007KT 19/16 A3004 RMK A01 T01870155  RH  081%=      5-min Rain = 0
KWT1 231742Z 09006KT 19/16 A3004 RMK A01 T01870155  RH  081%=      5-min Rain = 0
KWT1 231743Z 08006KT 19/16 A3003 RMK A01 T01880155  RH  081%=      5-min Rain = 0
KWT1 231744Z 08006KT 19/15 A3003 RMK A01 T01870152  RH  080%=      5-min Rain = 0
KWT1 231745Z 09005KT 19/15 A3003 RMK A01 T01860153  RH  081%=      5-min Rain = 0
KWT1 231746Z 08005KT 19/16 A3003 RMK A01 T01860156  RH  082%=      5-min Rain = 0
KWT1 231747Z 06006KT 19/16 A3003 RMK A01 T01870157  RH  082%=      5-min Rain = 0
KWT1 231748Z 06006KT 19/16 A3003 RMK A01 T01890157  RH  082%=      5-min Rain = 0
KWT1 231749Z 06007KT 19/16 A3003 RMK A01 T01900158  RH  082%=      5-min Rain = 0
KWT1 231750Z 05009KT 19/16 A3003 RMK A01 T01910155  RH  080%=      5-min Rain = 0
KWT1 231751Z 05009KT 19/16 A3003 RMK A01 T01920158  RH  081%=      5-min Rain = 0
KWT1 231752Z 05007KT 19/16 A3003 RMK A01 T01930158  RH  080%=      5-min Rain = 0
KWT1 231753Z 06008KT 19/16 A3003 RMK A01 T01930155  RH  079%=      5-min Rain = 0
KWT1 231754Z 05008KT 19/15 A3003 RMK A01 T01930154  RH  078%=      5-min Rain = 0
KWT1 231755Z 06007KT 19/16 A3003 RMK A01 T01930157  RH  080%=      5-min Rain = 0
KWT1 231756Z 07009KT 20/16 A3003 RMK A01 T01950155  RH  078%=      5-min Rain = 0
KWT1 231757Z 07006KT 19/15 A3003 RMK A01 T01940152  RH  077%=      5-min Rain = 0
KWT1 231758Z 06007KT 19/16 A3003 RMK A01 T01940156  RH  079%=      5-min Rain = 0
KWT1 231759Z 07008KT 19/16 A3003 RMK A01 T01940155  RH  078%=      5-min Rain = 0
KWT1 231800Z 06009KT 19/15 A3003 RMK A01 T01930153  RH  077%=      5-min Rain = 0
KWT1 231801Z 06008KT 19/16 A3003 RMK A01 T01930155  RH  078%=      5-min Rain = 0
KWT1 231802Z 06006KT 19/15 A3003 RMK A01 T01930154  RH  078%=      5-min Rain = 0
KWT1 231803Z 07008KT 20/16 A3003 RMK A01 T01950162  RH  081%=      5-min Rain = 0
KWT1 231804Z 08007KT 20/16 A3003 RMK A01 T01970156  RH  077%=      5-min Rain = 0
KWT1 231805Z 09008KT 20/16 A3003 RMK A01 T01970155  RH  076%=      5-min Rain = 0
KWT1 231806Z 07009KT 20/16 A3003 RMK A01 T01960155  RH  077%=      5-min Rain = 0
KWT1 231807Z 06009KT 20/16 A3003 RMK A01 T01950156  RH  078%=      5-min Rain = 0
KWT1 231808Z 04008KT 20/16 A3003 RMK A01 T01950156  RH  078%=      5-min Rain = 0
KWT1 231809Z 05010KT 20/16 A3003 RMK A01 T01960157  RH  078%=      5-min Rain = 0
KWT1 231810Z 05007KT 20/16 A3003 RMK A01 T01980157  RH  077%=      5-min Rain = 0
KWT1 231811Z 06007KT 20/16 A3003 RMK A01 T01980157  RH  077%=      5-min Rain = 0
KWT1 231812Z 05010KT 20/16 A3003 RMK A01 T01990155  RH  076%=      5-min Rain = 0
KWT1 231813Z 05010KT 20/15 A3003 RMK A01 T01980150  RH  074%=      5-min Rain = 0
KWT1 231814Z 04010KT 20/15 A3003 RMK A01 T01980152  RH  075%=      5-min Rain = 0
KWT1 231815Z 06010KT 20/16 A3003 RMK A01 T01990155  RH  076%=      5-min Rain = 0
KWT1 231816Z 08010KT 20/16 A3003 RMK A01 T02000156  RH  076%=      5-min Rain = 0
KWT1 231817Z 08007KT 20/15 A3003 RMK A01 T02000153  RH  074%=      5-min Rain = 0
KWT1 231818Z 08007KT 20/15 A3002 RMK A01 T01990154  RH  075%=      5-min Rain = 0
KWT1 231819Z 05009KT 20/16 A3002 RMK A01 T01990158  RH  077%=      5-min Rain = 0
KWT1 231820Z 05008KT 20/15 A3002 RMK A01 T02010154  RH  074%=      5-min Rain = 0
KWT1 231821Z 05009KT 20/15 A3002 RMK A01 T02010153  RH  074%=      5-min Rain = 0
KWT1 231822Z 03008KT 20/15 A3002 RMK A01 T02010151  RH  073%=      5-min Rain = 0
KWT1 231823Z 05008KT 20/15 A3002 RMK A01 T02020153  RH  074%=      5-min Rain = 0
KWT1 231824Z 07008KT 20/16 A3002 RMK A01 T02030155  RH  074%=      5-min Rain = 0
KWT1 231825Z 07009KT 20/16 A3002 RMK A01 T02030156  RH  074%=      5-min Rain = 0
KWT1 231826Z 08009KT 20/16 A3002 RMK A01 T02040155  RH  073%=      5-min Rain = 0
KWT1 231827Z 06008KT 20/16 A3002 RMK A01 T02030156  RH  074%=      5-min Rain = 0
KWT1 231828Z 05009KT 21/16 A3002 RMK A01 T02050157  RH  074%=      5-min Rain = 0
KWT1 231829Z 04010KT 21/15 A3002 RMK A01 T02060151  RH  071%=      5-min Rain = 0
KWT1 231830Z 05010KT 21/15 A3002 RMK A01 T02050152  RH  071%=      5-min Rain = 0
KWT1 231831Z 05010KT 21/15 A3002 RMK A01 T02050151  RH  071%=      5-min Rain = 0
KWT1 231832Z 06008KT 21/15 A3002 RMK A01 T02050151  RH  071%=      5-min Rain = 0
KWT1 231833Z 04008KT 21/16 A3002 RMK A01 T02050158  RH  074%=      5-min Rain = 0
KWT1 231834Z 06008KT 21/16 A3002 RMK A01 T02060156  RH  073%=      5-min Rain = 0
KWT1 231835Z 06010KT 21/16 A3002 RMK A01 T02060156  RH  073%=      5-min Rain = 0
KWT1 231836Z 07010KT 21/15 A3002 RMK A01 T02060154  RH  072%=      5-min Rain = 0
KWT1 231837Z 06008KT 21/15 A3002 RMK A01 T02050154  RH  072%=      5-min Rain = 0
KWT1 231838Z 05009KT 20/15 A3002 RMK A01 T02040149  RH  071%=      5-min Rain = 0
KWT1 231839Z 05008KT 20/15 A3002 RMK A01 T02030148  RH  071%=      5-min Rain = 0
KWT1 231840Z 06008G13KT 21/15 A3002 RMK A01 T02050153  RH  072%=      5-min Rain = 0
KWT1 231841Z 05009KT 21/16 A3002 RMK A01 T02060155  RH  072%=      5-min Rain = 0
KWT1 231842Z 06011KT 21/16 A3002 RMK A01 T02060157  RH  073%=      5-min Rain = 0
KWT1 231843Z 06011KT 21/16 A3002 RMK A01 T02070155  RH  072%=      5-min Rain = 0
KWT1 231844Z 06010KT 21/16 A3002 RMK A01 T02070155  RH  072%=      5-min Rain = 0
KWT1 231845Z 06008KT 21/16 A3002 RMK A01 T02060155  RH  072%=      5-min Rain = 0
KWT1 231846Z 07010KT 21/16 A3001 RMK A01 T02050157  RH  074%=      5-min Rain = 0
KWT1 231847Z 07009KT 21/16 A3001 RMK A01 T02050155  RH  073%=      5-min Rain = 0
KWT1 231848Z 05011KT 21/16 A3001 RMK A01 T02080156  RH  072%=      5-min Rain = 0
KWT1 231849Z 05011KT 21/16 A3001 RMK A01 T02090156  RH  071%=      5-min Rain = 0
KWT1 231850Z 06009KT 21/15 A3001 RMK A01 T02080151  RH  070%=      5-min Rain = 0
KWT1 231851Z 05010KT 21/15 A3001 RMK A01 T02050152  RH  072%=      5-min Rain = 0
KWT1 231852Z 05011KT 20/15 A3001 RMK A01 T02040150  RH  071%=      5-min Rain = 0
KWT1 231853Z 06009KT 20/15 A3001 RMK A01 T02040151  RH  072%=      5-min Rain = 0
KWT1 231854Z 06009KT 21/16 A3001 RMK A01 T02050156  RH  073%=      5-min Rain = 0
KWT1 231855Z 06006KT 21/16 A3001 RMK A01 T02080156  RH  072%=      5-min Rain = 0
KWT1 231856Z 05007G12KT 21/16 A3001 RMK A01 T02080156  RH  072%=      5-min Rain = 0
KWT1 231857Z 06009KT 21/16 A3001 RMK A01 T02080156  RH  072%=      5-min Rain = 0
KWT1 231858Z 04007KT 21/16 A3001 RMK A01 T02090157  RH  072%=      5-min Rain = 0
KWT1 231859Z 04007KT 21/16 A3001 RMK A01 T02110158  RH  072%=      5-min Rain = 0
KWT1 231900Z 06008KT 21/15 A3001 RMK A01 T02110154  RH  070%=      5-min Rain = 0
KWT1 231901Z 04011KT 21/15 A3001 RMK A01 T02110154  RH  070%=      5-min Rain = 0
KWT1 231902Z 05009KT 21/15 A3001 RMK A01 T02100153  RH  070%=      5-min Rain = 0
KWT1 231903Z 05007KT 21/15 A3001 RMK A01 T02080151  RH  070%=      5-min Rain = 0
KWT1 231904Z 04008KT 21/15 A3001 RMK A01 T02070152  RH  071%=      5-min Rain = 0
KWT1 231905Z 04011KT 21/15 A3001 RMK A01 T02060152  RH  071%=      5-min Rain = 0
KWT1 231906Z 03011KT 21/15 A3001 RMK A01 T02070150  RH  070%=      5-min Rain = 0
KWT1 231907Z 03009KT 21/15 A3001 RMK A01 T02060154  RH  072%=      5-min Rain = 0
KWT1 231908Z 05011KT 21/16 A3001 RMK A01 T02100155  RH  071%=      5-min Rain = 0
KWT1 231909Z 06011KT 21/15 A3001 RMK A01 T02100152  RH  069%=      5-min Rain = 0
KWT1 231910Z 05009KT 21/16 A3001 RMK A01 T02110159  RH  072%=      5-min Rain = 0
KWT1 231911Z 04006KT 21/16 A3001 RMK A01 T02140159  RH  071%=      5-min Rain = 0
KWT1 231912Z 05011KT 21/16 A3001 RMK A01 T02140156  RH  069%=      5-min Rain = 0
KWT1 231913Z 05008KT 21/16 A3001 RMK A01 T02140156  RH  069%=      5-min Rain = 0
KWT1 231914Z 06011KT 21/16 A3001 RMK A01 T02130156  RH  070%=      5-min Rain = 0
KWT1 231915Z 08010KT 21/15 A3001 RMK A01 T02120150  RH  068%=      5-min Rain = 0
KWT1 231916Z 07009KT 21/15 A3001 RMK A01 T02100149  RH  068%=      5-min Rain = 0
KWT1 231917Z 08007KT 21/15 A3001 RMK A01 T02100149  RH  068%=      5-min Rain = 0
KWT1 231918Z 06008KT 21/15 A3001 RMK A01 T02090149  RH  068%=      5-min Rain = 0
KWT1 231919Z 04009KT 21/15 A3001 RMK A01 T02100154  RH  070%=      5-min Rain = 0
KWT1 231920Z 04009KT 21/16 A3001 RMK A01 T02120158  RH  071%=      5-min Rain = 0
KWT1 231921Z 03009KT 21/15 A3001 RMK A01 T02130154  RH  069%=      5-min Rain = 0
KWT1 231922Z 03011KT 21/15 A3001 RMK A01 T02130154  RH  069%=      5-min Rain = 0
KWT1 231923Z 04010KT 21/16 A3001 RMK A01 T02130156  RH  070%=      5-min Rain = 0
KWT1 231924Z 05007KT 21/16 A3001 RMK A01 T02120155  RH  070%=      5-min Rain = 0
KWT1 231925Z 05009KT 21/16 A3001 RMK A01 T02120157  RH  071%=      5-min Rain = 0
KWT1 231926Z 06009KT 21/15 A3001 RMK A01 T02130153  RH  069%=      5-min Rain = 0
KWT1 231927Z 07011KT 21/15 A3001 RMK A01 T02120152  RH  069%=      5-min Rain = 0
KWT1 231928Z 06008KT 21/15 A3001 RMK A01 T02110153  RH  069%=      5-min Rain = 0
KWT1 231929Z 06011KT 21/15 A3001 RMK A01 T02120152  RH  069%=      5-min Rain = 0
KWT1 231930Z 06008KT 21/15 A3001 RMK A01 T02110146  RH  066%=      5-min Rain = 0
KWT1 231931Z 04006KT 21/15 A3001 RMK A01 T02100150  RH  068%=      5-min Rain = 0
KWT1 231932Z 05008KT 21/15 A3001 RMK A01 T02110149  RH  068%=      5-min Rain = 0
KWT1 231933Z 06007KT 21/15 A3001 RMK A01 T02120153  RH  069%=      5-min Rain = 0
KWT1 231934Z 07008KT 21/15 A3001 RMK A01 T02130153  RH  069%=      5-min Rain = 0
KWT1 231935Z 05008KT 21/15 A3001 RMK A01 T02130153  RH  069%=      5-min Rain = 0
KWT1 231936Z 05009KT 21/15 A3001 RMK A01 T02110149  RH  067%=      5-min Rain = 0
KWT1 231937Z 04009KT 21/15 A3001 RMK A01 T02100150  RH  069%=      5-min Rain = 0
KWT1 231938Z 06010KT 21/15 A3001 RMK A01 T02100152  RH  069%=      5-min Rain = 0
KWT1 231939Z 06008KT 21/15 A3001 RMK A01 T02110148  RH  067%=      5-min Rain = 0
KWT1 231940Z 05007KT 21/15 A3001 RMK A01 T02100146  RH  067%=      5-min Rain = 0
KWT1 231941Z 03005KT 21/15 A30 RMK A01 T02070146  RH  068%=      5-min Rain = 0
KWT1 231942Z 05006KT 21/15 A30 RMK A01 T02060150  RH  070%=      5-min Rain = 0
KWT1 231943Z 06010KT 21/15 A30 RMK A01 T02070152  RH  071%=      5-min Rain = 0
KWT1 231944Z 05009KT 21/15 A30 RMK A01 T02080154  RH  071%=      5-min Rain = 0
KWT1 231945Z 06012KT 21/15 A3001 RMK A01 T02090152  RH  070%=      5-min Rain = 0
KWT1 231946Z 05010KT 21/15 A3001 RMK A01 T02090150  RH  069%=      5-min Rain = 0
KWT1 231947Z 04010KT 21/15 A30 RMK A01 T02080151  RH  070%=      5-min Rain = 0
KWT1 231948Z 03008KT 21/15 A30 RMK A01 T02070152  RH  071%=      5-min Rain = 0
KWT1 231949Z 05009KT 21/15 A30 RMK A01 T02070153  RH  071%=      5-min Rain = 0
KWT1 231950Z 06009KT 21/15 A30 RMK A01 T02080152  RH  070%=      5-min Rain = 0
KWT1 231951Z 04009G14KT 21/15 A30 RMK A01 T02090153  RH  070%=      5-min Rain = 0
KWT1 231952Z 04012KT 21/15 A30 RMK A01 T02100152  RH  069%=      5-min Rain = 0
KWT1 231953Z 04009KT 21/15 A30 RMK A01 T02100149  RH  068%=      5-min Rain = 0
KWT1 231954Z 04009KT 21/15 A30 RMK A01 T02100152  RH  069%=      5-min Rain = 0
KWT1 231955Z 06008KT 21/16 A30 RMK A01 T02110155  RH  070%=      5-min Rain = 0
KWT1 231956Z 06009KT 21/16 A30 RMK A01 T02140158  RH  071%=      5-min Rain = 0
KWT1 231957Z 07011KT 22/15 A30 RMK A01 T02150152  RH  067%=      5-min Rain = 0
KWT1 231958Z 05011KT 21/15 A30 RMK A01 T02140154  RH  069%=      5-min Rain = 0
KWT1 231959Z 05011KT 21/16 A30 RMK A01 T02140155  RH  069%=      5-min Rain = 0
KWT1 232000Z 04011KT 22/16 A30 RMK A01 T02160156  RH  069%=      5-min Rain = 0
KWT1 232001Z 03011KT 22/15 A30 RMK A01 T02170152  RH  066%=      5-min Rain = 0
KWT1 232002Z 04010KT 22/15 A30 RMK A01 T02150147  RH  065%=      5-min Rain = 0
KWT1 232003Z 04011KT 21/15 A30 RMK A01 T02120148  RH  067%=      5-min Rain = 0
KWT1 232004Z 06010KT 21/15 A30 RMK A01 T02110150  RH  068%=      5-min Rain = 0
KWT1 232005Z 07009KT 21/15 A30 RMK A01 T02120149  RH  067%=      5-min Rain = 0
KWT1 232006Z 06008KT 21/15 A30 RMK A01 T02120148  RH  067%=      5-min Rain = 0
KWT1 232007Z 04007KT 21/15 A30 RMK A01 T02110151  RH  069%=      5-min Rain = 0
KWT1 232008Z 05013KT 21/15 A30 RMK A01 T02120152  RH  069%=      5-min Rain = 0
KWT1 232009Z 04012KT 21/15 A30 RMK A01 T02120151  RH  068%=      5-min Rain = 0
KWT1 232010Z 04010KT 21/15 A2999 RMK A01 T02120151  RH  068%=      5-min Rain = 0
KWT1 232011Z 05010KT 21/15 A2999 RMK A01 T02140152  RH  068%=      5-min Rain = 0
KWT1 232012Z 04009KT 22/15 A2999 RMK A01 T02150151  RH  066%=      5-min Rain = 0
KWT1 232013Z 04009KT 22/15 A2999 RMK A01 T02170153  RH  067%=      5-min Rain = 0
KWT1 232014Z 04008KT 22/15 A2999 RMK A01 T02190154  RH  066%=      5-min Rain = 0
KWT1 232015Z 05010KT 22/15 A2999 RMK A01 T02190153  RH  066%=      5-min Rain = 0
KWT1 232016Z 05007KT 22/16 A2999 RMK A01 T02200155  RH  067%=      5-min Rain = 0
KWT1 232017Z 05008KT 22/16 A2999 RMK A01 T02210156  RH  066%=      5-min Rain = 0
KWT1 232018Z 03010KT 22/16 A2999 RMK A01 T02230159  RH  067%=      5-min Rain = 0
KWT1 232019Z 04011KT 23/16 A2999 RMK A01 T02250157  RH  066%=      5-min Rain = 0
KWT1 232020Z 07012KT 22/16 A2999 RMK A01 T02240155  RH  065%=      5-min Rain = 0
KWT1 232021Z 07011KT 22/15 A2999 RMK A01 T02210150  RH  064%=      5-min Rain = 0
KWT1 232022Z 06009KT 22/16 A2999 RMK A01 T02200156  RH  067%=      5-min Rain = 0
KWT1 232023Z 06010KT 22/15 A2999 RMK A01 T02220153  RH  065%=      5-min Rain = 0
KWT1 232024Z 06012KT 22/16 A2999 RMK A01 T02220155  RH  066%=      5-min Rain = 0
KWT1 232025Z 07011KT 22/16 A2999 RMK A01 T02230155  RH  065%=      5-min Rain = 0
KWT1 232026Z 07008KT 22/15 A2999 RMK A01 T02240153  RH  064%=      5-min Rain = 0
KWT1 232027Z 07009KT 22/15 A2999 RMK A01 T02230152  RH  064%=      5-min Rain = 0
KWT1 232028Z 06008KT 22/15 A2999 RMK A01 T02190146  RH  063%=      5-min Rain = 0
KWT1 232029Z 05008KT 22/15 A2999 RMK A01 T02160153  RH  067%=      5-min Rain = 0
KWT1 232030Z 06009KT 22/15 A2999 RMK A01 T02160152  RH  067%=      5-min Rain = 0
KWT1 232031Z 06010KT 22/16 A2999 RMK A01 T02180155  RH  067%=      5-min Rain = 0
KWT1 232032Z 05011KT 22/15 A2999 RMK A01 T02210154  RH  066%=      5-min Rain = 0
KWT1 232033Z 05011KT 22/15 A2999 RMK A01 T02210150  RH  064%=      5-min Rain = 0
KWT1 232034Z 05012KT 22/15 A2999 RMK A01 T02200151  RH  065%=      5-min Rain = 0
KWT1 232035Z 06009KT 22/15 A2999 RMK A01 T02180148  RH  064%=      5-min Rain = 0
KWT1 232036Z 08007KT 22/15 A2999 RMK A01 T02170154  RH  067%=      5-min Rain = 0
KWT1 232037Z 08009KT 22/15 A2999 RMK A01 T02200151  RH  065%=      5-min Rain = 0
KWT1 232038Z 08011KT 22/15 A2999 RMK A01 T02210150  RH  064%=      5-min Rain = 0
KWT1 232039Z 08010KT 22/15 A2999 RMK A01 T02200146  RH  063%=      5-min Rain = 0
KWT1 232040Z 07009KT 22/14 A2999 RMK A01 T02180144  RH  063%=      5-min Rain = 0
KWT1 232041Z 08009KT 22/15 A2999 RMK A01 T02170147  RH  065%=      5-min Rain = 0
KWT1 232042Z 07010KT 22/15 A2999 RMK A01 T02180149  RH  065%=      5-min Rain = 0
KWT1 232043Z 09007KT 22/15 A2999 RMK A01 T02160145  RH  064%=      5-min Rain = 0
KWT1 232044Z 08008KT 22/15 A2998 RMK A01 T02150148  RH  066%=      5-min Rain = 0
KWT1 232045Z 08008KT 21/15 A2998 RMK A01 T02140148  RH  066%=      5-min Rain = 0
KWT1 232046Z 07010KT 22/15 A2998 RMK A01 T02160150  RH  066%=      5-min Rain = 0
KWT1 232047Z 07008KT 22/15 A2998 RMK A01 T02170150  RH  066%=      5-min Rain = 0
KWT1 232048Z 08011KT 22/15 A2998 RMK A01 T02180152  RH  066%=      5-min Rain = 0
KWT1 232049Z 07012KT 22/15 A2998 RMK A01 T02170146  RH  064%=      5-min Rain = 0
KWT1 232050Z 07009KT 22/15 A2998 RMK A01 T02150147  RH  065%=      5-min Rain = 0
KWT1 232051Z 08008KT 21/15 A2998 RMK A01 T02130147  RH  066%=      5-min Rain = 0
KWT1 232052Z 07006KT 21/15 A2998 RMK A01 T02130149  RH  067%=      5-min Rain = 0
KWT1 232053Z 06007KT 22/15 A2998 RMK A01 T02150152  RH  067%=      5-min Rain = 0
KWT1 232054Z 05008KT 22/15 A2998 RMK A01 T02160147  RH  065%=      5-min Rain = 0
KWT1 232055Z 06009KT 22/15 A2998 RMK A01 T02170149  RH  065%=      5-min Rain = 0
KWT1 232056Z 06010KT 22/15 A2998 RMK A01 T02180149  RH  064%=      5-min Rain = 0
KWT1 232057Z 05012KT 22/15 A2998 RMK A01 T02200149  RH  064%=      5-min Rain = 0
KWT1 232058Z 04010KT 22/15 A2997 RMK A01 T02180146  RH  064%=      5-min Rain = 0
KWT1 232059Z 06007KT 21/15 A2997 RMK A01 T02140145  RH  065%=      5-min Rain = 0
KWT1 232100Z 06008KT 21/15 A2997 RMK A01 T02130149  RH  067%=      5-min Rain = 0
KWT1 232101Z 05012KT 21/15 A2997 RMK A01 T02130146  RH  066%=      5-min Rain = 0
KWT1 232102Z 06011KT 21/14 A2997 RMK A01 T02120144  RH  065%=      5-min Rain = 0
KWT1 232103Z 06010KT 21/15 A2997 RMK A01 T02110147  RH  067%=      5-min Rain = 0
KWT1 232104Z 06009KT 22/15 A2997 RMK A01 T02150149  RH  066%=      5-min Rain = 0
KWT1 232105Z 06008KT 22/15 A2997 RMK A01 T02180149  RH  065%=      5-min Rain = 0
KWT1 232106Z 07008KT 22/15 A2997 RMK A01 T02190146  RH  063%=      5-min Rain = 0
KWT1 232107Z 08009KT 22/15 A2997 RMK A01 T02190148  RH  064%=      5-min Rain = 0
KWT1 232108Z 07007KT 22/15 A2997 RMK A01 T02190152  RH  066%=      5-min Rain = 0
KWT1 232109Z 06008KT 22/15 A2997 RMK A01 T02210148  RH  063%=      5-min Rain = 0
KWT1 232110Z 04011KT 22/15 A2996 RMK A01 T02220151  RH  064%=      5-min Rain = 0
KWT1 232111Z 03009KT 22/15 A2996 RMK A01 T02210147  RH  063%=      5-min Rain = 0
KWT1 232112Z 03007KT 22/15 A2996 RMK A01 T02180145  RH  063%=      5-min Rain = 0
KWT1 232113Z 05010KT 22/15 A2996 RMK A01 T02170151  RH  066%=      5-min Rain = 0
KWT1 232114Z 05011KT 22/15 A2996 RMK A01 T02210152  RH  065%=      5-min Rain = 0
KWT1 232115Z 04010KT 22/15 A2996 RMK A01 T02220150  RH  063%=      5-min Rain = 0
KWT1 232116Z 05010KT 22/14 A2996 RMK A01 T02190144  RH  063%=      5-min Rain = 0
KWT1 232117Z 05010KT 22/14 A2996 RMK A01 T02150144  RH  064%=      5-min Rain = 0
KWT1 232118Z 03008KT 21/14 A2996 RMK A01 T02130144  RH  065%=      5-min Rain = 0
KWT1 232119Z 04008KT 21/14 A2996 RMK A01 T02130143  RH  064%=      5-min Rain = 0
KWT1 232120Z 04007KT 21/14 A2996 RMK A01 T02120144  RH  065%=      5-min Rain = 0
KWT1 232121Z 04008KT 21/15 A2996 RMK A01 T02120145  RH  065%=      5-min Rain = 0
KWT1 232122Z 02009KT 21/14 A2996 RMK A01 T02140144  RH  064%=      5-min Rain = 0
KWT1 232123Z 02009KT 21/14 A2996 RMK A01 T02130142  RH  064%=      5-min Rain = 0
KWT1 232124Z 05011KT 21/14 A2996 RMK A01 T02120143  RH  065%=      5-min Rain = 0
KWT1 232125Z 06009KT 21/14 A2996 RMK A01 T02120144  RH  065%=      5-min Rain = 0
KWT1 232126Z 04008KT 21/14 A2996 RMK A01 T02130144  RH  065%=      5-min Rain = 0
KWT1 232127Z 04010KT 21/15 A2996 RMK A01 T02140145  RH  065%=      5-min Rain = 0
KWT1 232128Z 05011KT 22/14 A2996 RMK A01 T02150144  RH  064%=      5-min Rain = 0
KWT1 232129Z 04012KT 22/14 A2996 RMK A01 T02160144  RH  063%=      5-min Rain = 0
KWT1 232130Z 06012KT 22/15 A2996 RMK A01 T02180146  RH  064%=      5-min Rain = 0
KWT1 232131Z 06010KT 22/15 A2996 RMK A01 T02210150  RH  064%=      5-min Rain = 0
KWT1 232132Z 05010KT 23/15 A2996 RMK A01 T02250148  RH  062%=      5-min Rain = 0
KWT1 232133Z 07012KT 22/15 A2996 RMK A01 T02240146  RH  061%=      5-min Rain = 0
KWT1 232134Z 07009KT 22/14 A2996 RMK A01 T02200144  RH  062%=      5-min Rain = 0
KWT1 232135Z 07009KT 22/14 A2996 RMK A01 T02170143  RH  063%=      5-min Rain = 0
KWT1 232136Z 05009KT 22/15 A2996 RMK A01 T02160146  RH  064%=      5-min Rain = 0
KWT1 232137Z 05011KT 22/15 A2996 RMK A01 T02170145  RH  064%=      5-min Rain = 0
KWT1 232138Z 05011KT 22/14 A2996 RMK A01 T02150144  RH  064%=      5-min Rain = 0
KWT1 232139Z 04013KT 21/15 A2996 RMK A01 T02120145  RH  066%=      5-min Rain = 0
KWT1 232140Z 05012KT 21/14 A2996 RMK A01 T02110144  RH  065%=      5-min Rain = 0
KWT1 232141Z 06010KT 21/15 A2995 RMK A01 T02100145  RH  066%=      5-min Rain = 0
KWT1 232142Z 05009KT 21/15 A2995 RMK A01 T02100147  RH  067%=      5-min Rain = 0
KWT1 232143Z 06009KT 21/15 A2995 RMK A01 T02120151  RH  068%=      5-min Rain = 0
KWT1 232144Z 06008KT 21/15 A2995 RMK A01 T02140150  RH  067%=      5-min Rain = 0
KWT1 232145Z 06010KT 22/15 A2995 RMK A01 T02160151  RH  066%=      5-min Rain = 0
KWT1 232146Z 06011KT 22/15 A2995 RMK A01 T02180147  RH  064%=      5-min Rain = 0
KWT1 232147Z 05012KT 22/15 A2995 RMK A01 T02180147  RH  064%=      5-min Rain = 0
KWT1 232148Z 06009KT 22/15 A2995 RMK A01 T02200147  RH  063%=      5-min Rain = 0
KWT1 232149Z 05011KT 22/15 A2996 RMK A01 T02210151  RH  064%=      5-min Rain = 0
KWT1 232150Z 06011KT 22/15 A2996 RMK A01 T02230149  RH  063%=      5-min Rain = 0
KWT1 232151Z 06008KT 22/16 A2995 RMK A01 T02240155  RH  065%=      5-min Rain = 0
KWT1 232152Z 04010KT 23/15 A2995 RMK A01 T02270151  RH  062%=      5-min Rain = 0
KWT1 232153Z 05009KT 23/15 A2995 RMK A01 T02250145  RH  061%=      5-min Rain = 0
KWT1 232154Z 05013KT 22/15 A2995 RMK A01 T02210146  RH  062%=      5-min Rain = 0
KWT1 232155Z 04011KT 22/14 A2996 RMK A01 T02170143  RH  063%=      5-min Rain = 0
KWT1 232156Z 03010KT 21/14 A2995 RMK A01 T02130142  RH  064%=      5-min Rain = 0
KWT1 232157Z 05010KT 21/14 A2995 RMK A01 T02100142  RH  065%=      5-min Rain = 0
KWT1 232158Z 05011KT 21/14 A2995 RMK A01 T02090143  RH  066%=      5-min Rain = 0
KWT1 232159Z 03011KT 21/14 A2995 RMK A01 T02080143  RH  066%=      5-min Rain = 0
KWT1 232200Z 04010KT 21/14 A2995 RMK A01 T02080143  RH  066%=      5-min Rain = 0
KWT1 232201Z 06010KT 21/14 A2995 RMK A01 T02080144  RH  067%=      5-min Rain = 0
KWT1 232202Z 07009KT 21/14 A2995 RMK A01 T02080143  RH  066%=      5-min Rain = 0
KWT1 232203Z 07010KT 21/14 A2995 RMK A01 T02080142  RH  066%=      5-min Rain = 0
KWT1 232204Z 06009KT 21/14 A2995 RMK A01 T02080141  RH  066%=      5-min Rain = 0
KWT1 232205Z 05008KT 21/14 A2995 RMK A01 T02080143  RH  066%=      5-min Rain = 0
KWT1 232206Z 04007KT 21/14 A2995 RMK A01 T02080144  RH  066%=      5-min Rain = 0
KWT1 232207Z 04010KT 21/14 A2995 RMK A01 T02090143  RH  066%=      5-min Rain = 0
KWT1 232208Z 04013KT 21/14 A2995 RMK A01 T02090139  RH  064%=      5-min Rain = 0
KWT1 232209Z 05012KT 21/14 A2995 RMK A01 T02070140  RH  065%=      5-min Rain = 0
KWT1 232210Z 04009KT 21/14 A2995 RMK A01 T02060141  RH  066%=      5-min Rain = 0
KWT1 232211Z 04012KT 21/14 A2995 RMK A01 T02060140  RH  066%=      5-min Rain = 0
KWT1 232212Z 04012KT 21/14 A2994 RMK A01 T02050138  RH  065%=      5-min Rain = 0
KWT1 232213Z 05010KT 20/14 A2994 RMK A01 T02040139  RH  066%=      5-min Rain = 0
KWT1 232214Z 03012KT 21/14 A2994 RMK A01 T02050140  RH  066%=      5-min Rain = 0
KWT1 232215Z 04011KT 20/14 A2994 RMK A01 T02040138  RH  066%=      5-min Rain = 0
KWT1 232216Z 04012KT 20/14 A2994 RMK A01 T02040139  RH  066%=      5-min Rain = 0
KWT1 232217Z 04012KT 20/14 A2994 RMK A01 T02030140  RH  067%=      5-min Rain = 0
KWT1 232218Z 04012KT 20/14 A2994 RMK A01 T02030140  RH  067%=      5-min Rain = 0
KWT1 232219Z 04010KT 20/14 A2994 RMK A01 T02030140  RH  067%=      5-min Rain = 0
KWT1 232220Z 03009KT 20/14 A2994 RMK A01 T02020142  RH  068%=      5-min Rain = 0
KWT1 232221Z 03012KT 20/14 A2994 RMK A01 T02020142  RH  068%=      5-min Rain = 0
KWT1 232222Z 04012KT 20/14 A2994 RMK A01 T02020142  RH  068%=      5-min Rain = 0
KWT1 232223Z 04013KT 20/14 A2994 RMK A01 T02020142  RH  068%=      5-min Rain = 0
KWT1 232224Z 05013KT 20/14 A2994 RMK A01 T02020141  RH  068%=      5-min Rain = 0
KWT1 232225Z 04009KT 20/14 A2994 RMK A01 T02020142  RH  069%=      5-min Rain = 0
KWT1 232226Z 04010KT 20/14 A2994 RMK A01 T02020144  RH  069%=      5-min Rain = 0
KWT1 232227Z 05013KT 20/14 A2995 RMK A01 T02020142  RH  069%=      5-min Rain = 0
KWT1 232228Z 04013KT 20/14 A2995 RMK A01 T02010141  RH  068%=      5-min Rain = 0
KWT1 232229Z 04011KT 20/14 A2995 RMK A01 T02010141  RH  069%=      5-min Rain = 0
KWT1 232230Z 04014KT 20/14 A2995 RMK A01 T02000141  RH  069%=      5-min Rain = 0
KWT1 232231Z 04013KT 20/14 A2995 RMK A01 T02000141  RH  069%=      5-min Rain = 0
KWT1 232232Z 04010KT 20/14 A2994 RMK A01 T01990141  RH  069%=      5-min Rain = 0
KWT1 232233Z 03009KT 20/14 A2994 RMK A01 T01990142  RH  070%=      5-min Rain = 0
KWT1 232234Z 04010KT 20/14 A2994 RMK A01 T01990143  RH  070%=      5-min Rain = 0
KWT1 232235Z 04011KT 20/14 A2994 RMK A01 T01990142  RH  070%=      5-min Rain = 0
KWT1 232236Z 03012KT 20/14 A2994 RMK A01 T01990141  RH  069%=      5-min Rain = 0
KWT1 232237Z 04009KT 20/14 A2993 RMK A01 T01990142  RH  069%=      5-min Rain = 0
KWT1 232238Z 03011KT 20/14 A2993 RMK A01 T01990141  RH  069%=      5-min Rain = 0
KWT1 232239Z 03012KT 20/14 A2993 RMK A01 T01990141  RH  069%=      5-min Rain = 0
KWT1 232240Z 03013KT 20/14 A2993 RMK A01 T01980141  RH  070%=      5-min Rain = 0
KWT1 232241Z 04014KT 20/14 A2993 RMK A01 T01970141  RH  070%=      5-min Rain = 0
KWT1 232242Z 03013KT 20/14 A2993 RMK A01 T01970140  RH  070%=      5-min Rain = 0
KWT1 232243Z 03014KT 20/14 A2994 RMK A01 T01970140  RH  070%=      5-min Rain = 0
KWT1 232244Z 05013KT 20/14 A2994 RMK A01 T01970139  RH  069%=      5-min Rain = 0
KWT1 232245Z 05014KT 20/14 A2994 RMK A01 T01970140  RH  070%=      5-min Rain = 0
KWT1 232246Z 05013KT 20/14 A2994 RMK A01 T01960139  RH  069%=      5-min Rain = 0
KWT1 232247Z 05011KT 20/14 A2995 RMK A01 T01970139  RH  069%=      5-min Rain = 0
KWT1 232248Z 04012KT 20/14 A2995 RMK A01 T01970140  RH  070%=      5-min Rain = 0
KWT1 232249Z 04009KT 20/14 A2995 RMK A01 T01970142  RH  070%=      5-min Rain = 0
KWT1 232250Z 03013KT 20/14 A2996 RMK A01 T01970143  RH  071%=      5-min Rain = 0
KWT1 232251Z 03013KT 20/14 A2996 RMK A01 T01960142  RH  071%=      5-min Rain = 0
KWT1 232252Z 04012KT 20/14 A2996 RMK A01 T01960143  RH  072%=      5-min Rain = 0
KWT1 232253Z 03013KT 20/14 A2996 RMK A01 T01950142  RH  071%=      5-min Rain = 0
KWT1 232254Z 03013KT 20/14 A2996 RMK A01 T01950142  RH  071%=      5-min Rain = 0
KWT1 232255Z 03012KT 19/14 A2996 RMK A01 T01940141  RH  071%=      5-min Rain = 0
KWT1 232256Z 04011KT 19/14 A2995 RMK A01 T01940141  RH  072%=      5-min Rain = 0
KWT1 232257Z 05011KT 19/14 A2995 RMK A01 T01940142  RH  072%=      5-min Rain = 0
KWT1 232258Z 03011G16KT 19/14 A2995 RMK A01 T01940142  RH  072%=      5-min Rain = 0
KWT1 232259Z 04013KT 19/14 A2995 RMK A01 T01940141  RH  072%=      5-min Rain = 0
KWT1 232300Z 04013KT 19/14 A2994 RMK A01 T01940141  RH  071%=      5-min Rain = 0
KWT1 232301Z 04013KT 19/14 A2994 RMK A01 T01940142  RH  072%=      5-min Rain = 0
KWT1 232302Z 04011KT 19/14 A2994 RMK A01 T01940142  RH  072%=      5-min Rain = 0
KWT1 232303Z 03011KT 19/14 A2994 RMK A01 T01940141  RH  071%=      5-min Rain = 0
KWT1 232304Z 03013KT 19/14 A2994 RMK A01 T01940141  RH  071%=      5-min Rain = 0
KWT1 232305Z 01011KT 19/14 A2994 RMK A01 T01940141  RH  071%=      5-min Rain = 0
KWT1 232306Z 01013KT 19/14 A2995 RMK A01 T01940142  RH  072%=      5-min Rain = 0
KWT1 232307Z 01012KT 19/14 A2995 RMK A01 T01940143  RH  072%=      5-min Rain = 0
KWT1 232308Z 02012KT 19/14 A2994 RMK A01 T01930143  RH  073%=      5-min Rain = 0
KWT1 232309Z 01015KT 19/14 A2994 RMK A01 T01930143  RH  073%=      5-min Rain = 0
KWT1 232310Z 02013KT 19/14 A2994 RMK A01 T01930143  RH  073%=      5-min Rain = 0
KWT1 232311Z 03014KT 19/14 A2994 RMK A01 T01930143  RH  073%=      5-min Rain = 0
KWT1 232312Z 02011KT 19/14 A2994 RMK A01 T01930144  RH  073%=      5-min Rain = 0
KWT1 232313Z 02009KT 19/14 A2994 RMK A01 T01930144  RH  073%=      5-min Rain = 0
KWT1 232314Z 02010KT 19/15 A2994 RMK A01 T01930145  RH  073%=      5-min Rain = 0
KWT1 232315Z 02012G17KT 19/15 A2993 RMK A01 T01930145  RH  074%=      5-min Rain = 0
KWT1 232316Z 03014G20KT 19/14 A2993 RMK A01 T01930144  RH  073%=      5-min Rain = 0
KWT1 232317Z 02015G20KT 19/14 A2993 RMK A01 T01930144  RH  074%=      5-min Rain = 0
KWT1 232318Z 02015KT 19/15 A2993 RMK A01 T01910146  RH  075%=      5-min Rain = 0
KWT1 232319Z 02017KT 19/15 A2993 RMK A01 T01880147  RH  077%=      5-min Rain = 0
KWT1 232320Z 01014KT 19/15 A2993 RMK A01 T01850147  RH  078%=      5-min Rain = 0
KWT1 232321Z 01012G17KT 18/15 A2994 RMK A01 T01830147  RH  080%=      5-min Rain = 0
KWT1 232322Z 00013KT 18/15 A2994 RMK A01 T01810147  RH  081%=      5-min Rain = 0
KWT1 232323Z 35016G21KT 18/15 A2995 RMK A01 T01800147  RH  081%=      5-min Rain = 0
KWT1 232324Z 35016KT 18/15 A2995 RMK A01 T01790146  RH  081%=      5-min Rain = 0
KWT1 232325Z 35018KT 18/15 A2995 RMK A01 T01760145  RH  082%=      5-min Rain = 0
KWT1 232326Z 01019KT 17/14 A2995 RMK A01 T01730143  RH  083%=      5-min Rain = 0
KWT1 232327Z 01015G20KT 17/14 A2995 RMK A01 T01710143  RH  084%=      5-min Rain = 0
KWT1 232328Z 01017KT 17/14 A2995 RMK A01 T01700144  RH  085%=      5-min Rain = 0
KWT1 232329Z 02017G22KT 17/14 A2995 RMK A01 T01690143  RH  085%=      5-min Rain = 0
KWT1 232330Z 02014G19KT 17/14 A2995 RMK A01 T01680142  RH  085%=      5-min Rain = 0
KWT1 232331Z 01015KT 17/14 A2994 RMK A01 T01670143  RH  085%=      5-min Rain = 0
KWT1 232332Z 01014KT 17/14 A2994 RMK A01 T01670143  RH  086%=      5-min Rain = 0
KWT1 232333Z 00016KT 17/14 A2994 RMK A01 T01670143  RH  086%=      5-min Rain = 0
KWT1 232334Z 00014KT 17/14 A2994 RMK A01 T01660143  RH  086%=      5-min Rain = 0
KWT1 232335Z 00016KT 17/14 A2995 RMK A01 T01670143  RH  086%=      5-min Rain = 0
KWT1 232336Z 36017KT 17/14 A2995 RMK A01 T01660143  RH  086%=      5-min Rain = 0
KWT1 232337Z 00017KT 17/14 A2995 RMK A01 T01650142  RH  086%=      5-min Rain = 0
KWT1 232338Z 01017KT 16/14 A2995 RMK A01 T01640142  RH  086%=      5-min Rain = 0
KWT1 232339Z 01017G23KT 16/14 A2995 RMK A01 T01640142  RH  087%=      5-min Rain = 0
KWT1 232340Z 01017KT 16/14 A2995 RMK A01 T01630141  RH  087%=      5-min Rain = 0
KWT1 232341Z 01013KT 16/14 A2995 RMK A01 T01630141  RH  087%=      5-min Rain = 0
KWT1 232342Z 02015KT 16/14 A2995 RMK A01 T01620141  RH  087%=      5-min Rain = 0
KWT1 232343Z 02016KT 16/14 A2995 RMK A01 T01620141  RH  088%=      5-min Rain = 0
KWT1 232344Z 02015KT 16/14 A2995 RMK A01 T01610141  RH  088%=      5-min Rain = 0
KWT1 232345Z 01014KT 16/14 A2995 RMK A01 T01620142  RH  088%=      5-min Rain = 0
KWT1 232346Z 02014KT 16/14 A2995 RMK A01 T01620142  RH  088%=      5-min Rain = 0
KWT1 232347Z 02013KT 16/14 A2996 RMK A01 T01610142  RH  088%=      5-min Rain = 0
KWT1 232348Z 02013KT 16/14 A2996 RMK A01 T01620142  RH  088%=      5-min Rain = 0
KWT1 232349Z 01015KT 16/14 A2996 RMK A01 T01610142  RH  088%=      5-min Rain = 0
KWT1 232350Z 01019KT 16/14 A2996 RMK A01 T01610141  RH  088%=      5-min Rain = 0
KWT1 232351Z 01018KT 16/14 A2996 RMK A01 T01600140  RH  088%=      5-min Rain = 0
KWT1 232352Z 02016KT 16/14 A2996 RMK A01 T01600140  RH  088%=      5-min Rain = 0
KWT1 232353Z 02016KT 16/14 A2995 RMK A01 T01600140  RH  088%=      5-min Rain = 0
KWT1 232354Z 01015KT 16/14 A2995 RMK A01 T01600140  RH  088%=      5-min Rain = 0
KWT1 232355Z 01017KT 16/14 A2995 RMK A01 T01600140  RH  088%=      5-min Rain = 0
KWT1 232356Z 02017KT 16/14 A2995 RMK A01 T01590140  RH  088%=      5-min Rain = 0
KWT1 232357Z 02015KT 16/14 A2995 RMK A01 T01590140  RH  089%=      5-min Rain = 0
KWT1 232358Z 01013KT 16/14 A2995 RMK A01 T01590140  RH  089%=      5-min Rain = 0
KWT1 232359Z 01012KT 16/14 A2995 RMK A01 T01590140  RH  089%=      5-min Rain = 0
KWT1 240000Z 01017KT 16/14 A2995 RMK A01 T01580140  RH  089%=      5-min Rain = 0
KWT1 240001Z 01016KT 16/14 A2995 RMK A01 T01580139  RH  089%=      5-min Rain = 0
KWT1 240002Z 01014KT 16/14 A2995 RMK A01 T01570139  RH  089%=      5-min Rain = 0
KWT1 240003Z 01016KT 16/14 A2996 RMK A01 T01570139  RH  089%=      5-min Rain = 0
KWT1 240004Z 02013KT 16/14 A2996 RMK A01 T01560138  RH  089%=      5-min Rain = 0
KWT1 240005Z 02019KT 16/14 A2996 RMK A01 T01560139  RH  090%=      5-min Rain = 0
KWT1 240006Z 01019G24KT 16/14 A2996 RMK A01 T01550138  RH  089%=      5-min Rain = 0
KWT1 240007Z 01018KT 15/14 A2996 RMK A01 T01540137  RH  089%=      5-min Rain = 0
KWT1 240008Z 02017KT 15/14 A2996 RMK A01 T01540138  RH  090%=      5-min Rain = 0
KWT1 240009Z 01019KT 15/14 A2996 RMK A01 T01540137  RH  090%=      5-min Rain = 0
KWT1 240010Z 02015G20KT 15/14 A2995 RMK A01 T01540137  RH  090%=      5-min Rain = 0
KWT1 240011Z 02018KT 15/14 A2996 RMK A01 T01540137  RH  090%=      5-min Rain = 0
KWT1 240012Z 01019KT 15/14 A2996 RMK A01 T01540137  RH  089%=      5-min Rain = 0
KWT1 240013Z 02018G23KT 15/14 A2996 RMK A01 T01540137  RH  089%=      5-min Rain = 0
KWT1 240014Z 02017G22KT 15/14 A2996 RMK A01 T01540137  RH  090%=      5-min Rain = 0
KWT1 240015Z 02014KT 15/14 A2996 RMK A01 T01540137  RH  090%=      5-min Rain = 0
KWT1 240016Z 01015KT 15/14 A2996 RMK A01 T01540137  RH  090%=      5-min Rain = 0
KWT1 240017Z 02012KT 15/14 A2996 RMK A01 T01530137  RH  090%=      5-min Rain = 0
KWT1 240018Z 03016G21KT 15/14 A2996 RMK A01 T01540137  RH  090%=      5-min Rain = 0
KWT1 240019Z 03019KT 15/14 A2997 RMK A01 T01530136  RH  090%=      5-min Rain = 0
KWT1 240020Z 02019KT 15/14 A2996 RMK A01 T01530136  RH  090%=      5-min Rain = 0
KWT1 240021Z 02017KT 15/14 A2996 RMK A01 T01520136  RH  090%=      5-min Rain = 0
KWT1 240022Z 02018KT 15/14 A2996 RMK A01 T01510135  RH  090%=      5-min Rain = 0
KWT1 240023Z 02018G23KT 15/14 A2996 RMK A01 T01510135  RH  091%=      5-min Rain = 0
KWT1 240024Z 02016G21KT 15/14 A2996 RMK A01 T01500135  RH  091%=      5-min Rain = 0
KWT1 240025Z 01016G22KT 15/14 A2996 RMK A01 T01500136  RH  091%=      5-min Rain = 0
KWT1 240026Z 01015KT 15/14 A2997 RMK A01 T01510136  RH  091%=      5-min Rain = 0
KWT1 240027Z 36014KT 15/14 A2997 RMK A01 T01510137  RH  091%=      5-min Rain = 0
KWT1 240028Z 36015KT 15/14 A2998 RMK A01 T01510137  RH  092%=      5-min Rain = 0
KWT1 240029Z 35015KT 15/14 A2998 RMK A01 T01500137  RH  092%=      5-min Rain = 0
KWT1 240030Z 00017KT 15/14 A2999 RMK A01 T01490137  RH  092%=      5-min Rain = 0
KWT1 240031Z 36017G22KT 15/14 A2999 RMK A01 T01490137  RH  093%=      5-min Rain = 0
KWT1 240032Z 00016KT 15/14 A2999 RMK A01 T01490137  RH  093%=      5-min Rain = 0
KWT1 240033Z 00015KT 15/14 A2999 RMK A01 T01480137  RH  093%=      5-min Rain = 0
KWT1 240034Z 01013KT 15/14 A2999 RMK A01 T01480138  RH  094%=      5-min Rain = 0.01
KWT1 240035Z 00014KT 15/14 A2999 RMK A01 T01480138  RH  094%=      5-min Rain = 0.01
KWT1 240036Z 36016KT 15/14 A2999 RMK A01 T01470138  RH  094%=      5-min Rain = 0.01
KWT1 240037Z 00016G21KT 15/14 A2999 RMK A01 T01460138  RH  095%=      5-min Rain = 0.01
KWT1 240038Z 01015KT 15/14 A2999 RMK A01 T01460138  RH  095%=      5-min Rain = 0.01
KWT1 240039Z 01015KT 15/14 A2999 RMK A01 T01450138  RH  096%=      5-min Rain = 0.01
KWT1 240040Z 01013KT 14/14 A2999 RMK A01 T01440139  RH  096%=      5-min Rain = 0.01
KWT1 240041Z 01010KT 14/14 A2999 RMK A01 T01440139  RH  097%=      5-min Rain = 0.01
KWT1 240042Z 01011G17KT 14/14 A2999 RMK A01 T01440140  RH  097%=      5-min Rain = 0.01
KWT1 240043Z 02011KT 14/14 A2999 RMK A01 T01440140  RH  097%=      5-min Rain = 0.01
KWT1 240044Z 02010KT 14/14 A2999 RMK A01 T01440140  RH  097%=      5-min Rain = 0.01
KWT1 240045Z 02015KT 14/14 A2999 RMK A01 T01440140  RH  097%=      5-min Rain = 0.01
KWT1 240046Z 02015KT 14/14 A2999 RMK A01 T01440139  RH  097%=      5-min Rain = 0.01
KWT1 240047Z 02012KT 14/14 A2999 RMK A01 T01430139  RH  097%=      5-min Rain = 0
KWT1 240048Z 01012KT 14/14 A2999 RMK A01 T01430139  RH  097%=      5-min Rain = 0.01
KWT1 240049Z 01013KT 14/14 A2999 RMK A01 T01430139  RH  097%=      5-min Rain = 0
KWT1 240050Z 01014KT 14/14 A2999 RMK A01 T01430139  RH  097%=      5-min Rain = 0
KWT1 240051Z 01013KT 14/14 A2999 RMK A01 T01430139  RH  097%=      5-min Rain = 0.02
KWT1 240052Z 01012G17KT 14/14 A2998 RMK A01 T01430139  RH  097%=      5-min Rain = 0.02
KWT1 240053Z 03015KT 14/14 A2998 RMK A01 T01420139  RH  098%=      5-min Rain = 0.02
KWT1 240054Z 03016KT 14/14 A2998 RMK A01 T01420138  RH  098%=      5-min Rain = 0.01
KWT1 240055Z 02012KT 14/14 A2998 RMK A01 T01420138  RH  098%=      5-min Rain = 0.01
KWT1 240056Z 03013KT 14/14 A2998 RMK A01 T01420138  RH  098%=      5-min Rain = 0
KWT1 240057Z 03014KT 14/14 A2998 RMK A01 T01420138  RH  098%=      5-min Rain = 0.01
KWT1 240058Z 03015KT 14/14 A2998 RMK A01 T01420138  RH  098%=      5-min Rain = 0
KWT1 240059Z 03013KT 14/14 A2998 RMK A01 T01410138  RH  098%=      5-min Rain = 0.01
KWT1 240100Z 04013G18KT 14/14 A2998 RMK A01 T01410138  RH  098%=      5-min Rain = 0
KWT1 240101Z 03014G20KT 14/14 A2998 RMK A01 T01410139  RH  098%=      5-min Rain = 0
KWT1 240102Z 02015KT 14/14 A2997 RMK A01 T01410138  RH  098%=      5-min Rain = 0
KWT1 240103Z 03013KT 14/14 A2997 RMK A01 T01410138  RH  098%=      5-min Rain = 0
KWT1 240104Z 03016KT 14/14 A2997 RMK A01 T01410138  RH  098%=      5-min Rain = 0
KWT1 240105Z 03017KT 14/14 A2997 RMK A01 T01410138  RH  098%=      5-min Rain = 0
KWT1 240106Z 02013KT 14/14 A2996 RMK A01 T01410138  RH  098%=      5-min Rain = 0
KWT1 240107Z 02015KT 14/14 A2996 RMK A01 T01410138  RH  098%=      5-min Rain = 0
KWT1 240108Z 02016KT 14/14 A2996 RMK A01 T01400137  RH  098%=      5-min Rain = 0
KWT1 240109Z 02013KT 14/14 A2996 RMK A01 T01400137  RH  098%=      5-min Rain = 0
KWT1 240110Z 02014KT 14/14 A2996 RMK A01 T01410138  RH  098%=      5-min Rain = 0
KWT1 240111Z 02015G22KT 14/14 A2996 RMK A01 T01400137  RH  098%=      5-min Rain = 0
KWT1 240112Z 02018KT 14/14 A2996 RMK A01 T01400137  RH  098%=      5-min Rain = 0
KWT1 240113Z 03016KT 14/14 A2996 RMK A01 T01400137  RH  098%=      5-min Rain = 0
KWT1 240114Z 02013G18KT 14/14 A2996 RMK A01 T01400137  RH  098%=      5-min Rain = 0
KWT1 240115Z 02015KT 14/14 A2996 RMK A01 T01400137  RH  098%=      5-min Rain = 0
KWT1 240116Z 01015KT 14/14 A2997 RMK A01 T01400137  RH  098%=      5-min Rain = 0
KWT1 240117Z 02013KT 14/14 A2997 RMK A01 T01400137  RH  098%=      5-min Rain = 0
KWT1 240118Z 02014KT 14/14 A2997 RMK A01 T01400137  RH  098%=      5-min Rain = 0
KWT1 240119Z 02013KT 14/14 A2997 RMK A01 T01400137  RH  098%=      5-min Rain = 0
KWT1 240120Z 02014G19KT 14/14 A2997 RMK A01 T01410138  RH  098%=      5-min Rain = 0
KWT1 240121Z 01015KT 14/14 A2997 RMK A01 T01400138  RH  098%=      5-min Rain = 0
KWT1 240122Z 01014KT 14/14 A2997 RMK A01 T01400138  RH  098%=      5-min Rain = 0
KWT1 240123Z 02018KT 14/14 A2997 RMK A01 T01400138  RH  098%=      5-min Rain = 0
KWT1 240124Z 01016KT 14/14 A2997 RMK A01 T01400137  RH  098%=      5-min Rain = 0
KWT1 240125Z 01010KT 14/14 A2997 RMK A01 T01400137  RH  098%=      5-min Rain = 0
KWT1 240126Z 02012G18KT 14/14 A2997 RMK A01 T01410138  RH  098%=      5-min Rain = 0
KWT1 240127Z 01015KT 14/14 A2997 RMK A01 T01410138  RH  098%=      5-min Rain = 0
KWT1 240128Z 01015KT 14/14 A2997 RMK A01 T01400138  RH  098%=      5-min Rain = 0
KWT1 240129Z 02015G20KT 14/14 A2998 RMK A01 T01400137  RH  098%=      5-min Rain = 0
KWT1 240130Z 01016G21KT 14/14 A2997 RMK A01 T01400137  RH  098%=      5-min Rain = 0
KWT1 240131Z 01016KT 14/14 A2997 RMK A01 T01400137  RH  098%=      5-min Rain = 0
KWT1 240132Z 01017G22KT 14/14 A2997 RMK A01 T01400137  RH  098%=      5-min Rain = 0
KWT1 240133Z 00017G24KT 14/14 A2997 RMK A01 T01390136  RH  098%=      5-min Rain = 0
KWT1 240134Z 01017G22KT 14/14 A2997 RMK A01 T01390136  RH  098%=      5-min Rain = 0
KWT1 240135Z 01017G22KT 14/14 A2997 RMK A01 T01390136  RH  098%=      5-min Rain = 0
KWT1 240136Z 01017G23KT 14/14 A2997 RMK A01 T01390136  RH  098%=      5-min Rain = 0
KWT1 240137Z 00016KT 14/14 A2997 RMK A01 T01390135  RH  098%=      5-min Rain = 0
KWT1 240138Z 01014G19KT 14/14 A2997 RMK A01 T01380135  RH  098%=      5-min Rain = 0
KWT1 240139Z 01017KT 14/14 A2998 RMK A01 T01380135  RH  098%=      5-min Rain = 0
KWT1 240140Z 01016KT 14/14 A2998 RMK A01 T01390136  RH  098%=      5-min Rain = 0
KWT1 240141Z 01020G25KT 14/14 A2998 RMK A01 T01390135  RH  098%=      5-min Rain = 0
KWT1 240142Z 02016KT 14/14 A2997 RMK A01 T01390135  RH  098%=      5-min Rain = 0
KWT1 240143Z 01018KT 14/14 A2997 RMK A01 T01390135  RH  098%=      5-min Rain = 0
KWT1 240144Z 00017KT 14/14 A2997 RMK A01 T01390135  RH  098%=      5-min Rain = 0
KWT1 240145Z 01019KT 14/14 A2998 RMK A01 T01380135  RH  098%=      5-min Rain = 0
KWT1 240146Z 01016G21KT 14/14 A2998 RMK A01 T01380135  RH  098%=      5-min Rain = 0
KWT1 240147Z 01017KT 14/14 A2998 RMK A01 T01390135  RH  098%=      5-min Rain = 0
KWT1 240148Z 01010G16KT 14/14 A2998 RMK A01 T01390135  RH  098%=      5-min Rain = 0
KWT1 240149Z 02009KT 14/14 A2999 RMK A01 T01390135  RH  098%=      5-min Rain = 0
KWT1 240150Z 02012KT 14/14 A2999 RMK A01 T01390135  RH  098%=      5-min Rain = 0
KWT1 240151Z 03010KT 14/14 A2999 RMK A01 T01380135  RH  098%=      5-min Rain = 0
KWT1 240152Z 03009KT 14/14 A2999 RMK A01 T01380135  RH  098%=      5-min Rain = 0
KWT1 240153Z 02012KT 14/14 A2999 RMK A01 T01390135  RH  098%=      5-min Rain = 0
KWT1 240154Z 02011KT 14/14 A2999 RMK A01 T01390135  RH  098%=      5-min Rain = 0
KWT1 240155Z 02008KT 14/14 A2999 RMK A01 T01390135  RH  098%=      5-min Rain = 0
KWT1 240156Z 02009KT 14/14 A2999 RMK A01 T01390135  RH  098%=      5-min Rain = 0
KWT1 240157Z 03012KT 14/14 A2999 RMK A01 T01390135  RH  098%=      5-min Rain = 0
KWT1 240158Z 03015KT 14/14 A2999 RMK A01 T01390136  RH  098%=      5-min Rain = 0
KWT1 240159Z 03014KT 14/14 A2999 RMK A01 T01390135  RH  097%=      5-min Rain = 0
KWT1 240200Z 03012KT 14/14 A2999 RMK A01 T01390135  RH  097%=      5-min Rain = 0
KWT1 240201Z 03014KT 14/14 A2999 RMK A01 T01390135  RH  097%=      5-min Rain = 0
KWT1 240202Z 04011KT 14/14 A2998 RMK A01 T01390135  RH  097%=      5-min Rain = 0
KWT1 240203Z 04011KT 14/14 A2998 RMK A01 T01390135  RH  097%=      5-min Rain = 0
KWT1 240204Z 04012KT 14/14 A2998 RMK A01 T01390136  RH  098%=      5-min Rain = 0
KWT1 240205Z 04012G17KT 14/14 A2998 RMK A01 T01390136  RH  098%=      5-min Rain = 0
KWT1 240206Z 04014KT 14/14 A2998 RMK A01 T01390136  RH  098%=      5-min Rain = 0
KWT1 240207Z 03013KT 14/14 A2998 RMK A01 T01390135  RH  097%=      5-min Rain = 0
KWT1 240208Z 02010KT 14/14 A2998 RMK A01 T01390135  RH  097%=      5-min Rain = 0
KWT1 240209Z 01012KT 14/14 A2999 RMK A01 T01390135  RH  097%=      5-min Rain = 0
KWT1 240210Z 02011KT 14/14 A2999 RMK A01 T01390135  RH  097%=      5-min Rain = 0
KWT1 240211Z 02013KT 14/13 A2999 RMK A01 T01380134  RH  097%=      5-min Rain = 0
KWT1 240212Z 03012KT 14/13 A2999 RMK A01 T01380134  RH  097%=      5-min Rain = 0
KWT1 240213Z 04012KT 14/13 A2999 RMK A01 T01380134  RH  097%=      5-min Rain = 0
KWT1 240214Z 04015KT 14/13 A2998 RMK A01 T01390134  RH  097%=      5-min Rain = 0
KWT1 240215Z 04016KT 14/13 A2998 RMK A01 T01390134  RH  097%=      5-min Rain = 0
KWT1 240216Z 04018KT 14/13 A2997 RMK A01 T01390134  RH  097%=      5-min Rain = 0
KWT1 240217Z 04016KT 14/13 A2997 RMK A01 T01390134  RH  097%=      5-min Rain = 0
KWT1 240218Z 03017KT 14/13 A2997 RMK A01 T01380134  RH  097%=      5-min Rain = 0
KWT1 240219Z 02013G18KT 14/13 A2997 RMK A01 T01380134  RH  097%=      5-min Rain = 0
KWT1 240220Z 01014KT 14/13 A2997 RMK A01 T01390134  RH  097%=      5-min Rain = 0
KWT1 240221Z 00014KT 14/13 A2997 RMK A01 T01380134  RH  097%=      5-min Rain = 0
KWT1 240222Z 00015KT 14/13 A2997 RMK A01 T01390134  RH  097%=      5-min Rain = 0
KWT1 240223Z 00016KT 14/13 A2997 RMK A01 T01390134  RH  097%=      5-min Rain = 0
KWT1 240224Z 00017KT 14/13 A2997 RMK A01 T01380134  RH  097%=      5-min Rain = 0
KWT1 240225Z 36017KT 14/13 A2996 RMK A01 T01390134  RH  097%=      5-min Rain = 0
KWT1 240226Z 01018G23KT 14/13 A2996 RMK A01 T01380134  RH  097%=      5-min Rain = 0
KWT1 240227Z 02017KT 14/13 A2996 RMK A01 T01380134  RH  097%=      5-min Rain = 0
KWT1 240228Z 02015KT 14/13 A2995 RMK A01 T01380133  RH  097%=      5-min Rain = 0
KWT1 240229Z 01013G18KT 14/13 A2995 RMK A01 T01380133  RH  097%=      5-min Rain = 0
KWT1 240230Z 36016G22KT 14/13 A2996 RMK A01 T01380134  RH  097%=      5-min Rain = 0
KWT1 240231Z 35017KT 14/13 A2997 RMK A01 T01380134  RH  097%=      5-min Rain = 0
KWT1 240232Z 34019KT 14/13 A2997 RMK A01 T01380134  RH  097%=      5-min Rain = 0
KWT1 240233Z 34017KT 14/13 A2998 RMK A01 T01380134  RH  097%=      5-min Rain = 0
KWT1 240234Z 34019G24KT 14/13 A2998 RMK A01 T01390134  RH  097%=      5-min Rain = 0
KWT1 240235Z 35015KT 14/13 A2998 RMK A01 T01380134  RH  097%=      5-min Rain = 0
KWT1 240236Z 00014KT 14/13 A2998 RMK A01 T01380133  RH  097%=      5-min Rain = 0
KWT1 240237Z 36015KT 14/13 A2998 RMK A01 T01390133  RH  096%=      5-min Rain = 0
KWT1 240238Z 01013KT 14/13 A2998 RMK A01 T01380133  RH  096%=      5-min Rain = 0
KWT1 240239Z 02014KT 14/13 A2998 RMK A01 T01380132  RH  096%=      5-min Rain = 0
KWT1 240240Z 02015KT 14/13 A2997 RMK A01 T01380132  RH  096%=      5-min Rain = 0
KWT1 240241Z 02013G18KT 14/13 A2997 RMK A01 T01380132  RH  096%=      5-min Rain = 0
KWT1 240242Z 02015KT 14/13 A2997 RMK A01 T01380132  RH  096%=      5-min Rain = 0
KWT1 240243Z 02013KT 14/13 A2997 RMK A01 T01370131  RH  096%=      5-min Rain = 0
KWT1 240244Z 02016KT 14/13 A2997 RMK A01 T01370131  RH  096%=      5-min Rain = 0
KWT1 240245Z 03016KT 14/13 A2996 RMK A01 T01380131  RH  096%=      5-min Rain = 0
KWT1 240246Z 03016KT 14/13 A2996 RMK A01 T01370131  RH  096%=      5-min Rain = 0
KWT1 240247Z 02014KT 14/13 A2997 RMK A01 T01380131  RH  096%=      5-min Rain = 0
KWT1 240248Z 02012KT 14/13 A2997 RMK A01 T01380131  RH  096%=      5-min Rain = 0
KWT1 240249Z 01013KT 14/13 A2998 RMK A01 T01380131  RH  096%=      5-min Rain = 0
KWT1 240250Z 01015KT 14/13 A2999 RMK A01 T01370131  RH  096%=      5-min Rain = 0
KWT1 240251Z 01012KT 14/13 A2999 RMK A01 T01380131  RH  096%=      5-min Rain = 0
KWT1 240252Z 02013KT 14/13 A2999 RMK A01 T01380131  RH  096%=      5-min Rain = 0
KWT1 240253Z 02013KT 14/13 A2999 RMK A01 T01380131  RH  096%=      5-min Rain = 0
KWT1 240254Z 02011KT 14/13 A2999 RMK A01 T01380131  RH  095%=      5-min Rain = 0
KWT1 240255Z 02013KT 14/13 A2999 RMK A01 T01380131  RH  096%=      5-min Rain = 0
KWT1 240256Z 03013KT 14/13 A2999 RMK A01 T01380131  RH  095%=      5-min Rain = 0
KWT1 240257Z 03014KT 14/13 A2999 RMK A01 T01380130  RH  095%=      5-min Rain = 0
KWT1 240258Z 03015KT 14/13 A2999 RMK A01 T01380130  RH  095%=      5-min Rain = 0
KWT1 240259Z 03013KT 14/13 A2999 RMK A01 T01380130  RH  095%=      5-min Rain = 0
KWT1 240300Z 03013KT 14/13 A2999 RMK A01 T01380130  RH  095%=      5-min Rain = 0
KWT1 240301Z 03013KT 14/13 A30 RMK A01 T01380130  RH  095%=      5-min Rain = 0
KWT1 240302Z 03015KT 14/13 A30 RMK A01 T01380130  RH  095%=      5-min Rain = 0
KWT1 240303Z 03012KT 14/13 A3001 RMK A01 T01380130  RH  095%=      5-min Rain = 0
KWT1 240304Z 03012KT 14/13 A3001 RMK A01 T01380130  RH  095%=      5-min Rain = 0
KWT1 240305Z 04014KT 14/13 A3001 RMK A01 T01380130  RH  095%=      5-min Rain = 0
KWT1 240306Z 04014KT 14/13 A3001 RMK A01 T01380130  RH  095%=      5-min Rain = 0
KWT1 240307Z 04011KT 14/13 A3001 RMK A01 T01380129  RH  094%=      5-min Rain = 0
KWT1 240308Z 03011KT 14/13 A3001 RMK A01 T01380130  RH  095%=      5-min Rain = 0
KWT1 240309Z 04011KT 14/13 A3001 RMK A01 T01390130  RH  095%=      5-min Rain = 0.01
KWT1 240310Z 05012KT 14/13 A3001 RMK A01 T01380130  RH  095%=      5-min Rain = 0
KWT1 240311Z 05012KT 14/13 A3001 RMK A01 T01380130  RH  095%=      5-min Rain = 0
KWT1 240312Z 05010KT 14/13 A3001 RMK A01 T01390131  RH  095%=      5-min Rain = 0
KWT1 240313Z 05011KT 14/13 A3002 RMK A01 T01390131  RH  095%=      5-min Rain = 0
KWT1 240314Z 05011KT 14/13 A3001 RMK A01 T01380130  RH  095%=      5-min Rain = 0
KWT1 240315Z 06012KT 14/13 A3001 RMK A01 T01380130  RH  095%=      5-min Rain = 0
KWT1 240316Z 06015KT 14/13 A3001 RMK A01 T01380130  RH  095%=      5-min Rain = 0
KWT1 240317Z 06015KT 14/13 A30 RMK A01 T01390130  RH  094%=      5-min Rain = 0
KWT1 240318Z 07013KT 14/13 A30 RMK A01 T01380129  RH  094%=      5-min Rain = 0
KWT1 240319Z 07011KT 14/13 A30 RMK A01 T01390130  RH  094%=      5-min Rain = 0
KWT1 240320Z 06010KT 14/13 A30 RMK A01 T01380129  RH  094%=      5-min Rain = 0
KWT1 240321Z 07012KT 14/13 A3001 RMK A01 T01380129  RH  094%=      5-min Rain = 0
KWT1 240322Z 06012KT 14/13 A3001 RMK A01 T01380129  RH  094%=      5-min Rain = 0
KWT1 240323Z 05011KT 14/13 A3002 RMK A01 T01380129  RH  094%=      5-min Rain = 0
KWT1 240324Z 04009KT 14/13 A3002 RMK A01 T01380129  RH  094%=      5-min Rain = 0
KWT1 240325Z 02008KT 14/13 A3003 RMK A01 T01380129  RH  094%=      5-min Rain = 0
KWT1 240326Z 02008KT 14/13 A3003 RMK A01 T01380129  RH  094%=      5-min Rain = 0
KWT1 240327Z 02009KT 14/13 A3003 RMK A01 T01380129  RH  094%=      5-min Rain = 0
KWT1 240328Z 03011KT 14/13 A3003 RMK A01 T01380130  RH  095%=      5-min Rain = 0
KWT1 240329Z 04009KT 14/13 A3002 RMK A01 T01380129  RH  094%=      5-min Rain = 0
KWT1 240330Z 03011KT 14/13 A3002 RMK A01 T01380129  RH  094%=      5-min Rain = 0
KWT1 240331Z 03009KT 14/13 A3003 RMK A01 T01380129  RH  094%=      5-min Rain = 0
KWT1 240332Z 02008KT 14/13 A3003 RMK A01 T01380129  RH  094%=      5-min Rain = 0
KWT1 240333Z 01009KT 14/13 A3004 RMK A01 T01380129  RH  094%=      5-min Rain = 0
KWT1 240334Z 01011KT 14/13 A3004 RMK A01 T01380129  RH  094%=      5-min Rain = 0
KWT1 240335Z 01013KT 14/13 A3004 RMK A01 T01380129  RH  094%=      5-min Rain = 0
KWT1 240336Z 01012KT 14/13 A3004 RMK A01 T01380129  RH  094%=      5-min Rain = 0
KWT1 240337Z 01015KT 14/13 A3004 RMK A01 T01380130  RH  095%=      5-min Rain = 0
KWT1 240338Z 02014KT 14/13 A3003 RMK A01 T01380130  RH  095%=      5-min Rain = 0
KWT1 240339Z 02014KT 14/13 A3003 RMK A01 T01380130  RH  095%=      5-min Rain = 0
KWT1 240340Z 03013KT 14/13 A3003 RMK A01 T01370129  RH  095%=      5-min Rain = 0
KWT1 240341Z 03009KT 14/13 A3003 RMK A01 T01370130  RH  095%=      5-min Rain = 0
KWT1 240342Z 03008KT 14/13 A3003 RMK A01 T01370130  RH  095%=      5-min Rain = 0
KWT1 240343Z 02006KT 14/13 A3004 RMK A01 T01370130  RH  095%=      5-min Rain = 0
KWT1 240344Z 02004KT 14/13 A3005 RMK A01 T01370130  RH  095%=      5-min Rain = 0.01
KWT1 240345Z 34005KT 14/13 A3005 RMK A01 T01370130  RH  095%=      5-min Rain = 0
KWT1 240346Z 32006KT 14/13 A3006 RMK A01 T01370130  RH  095%=      5-min Rain = 0
KWT1 240347Z 33008KT 14/13 A3006 RMK A01 T01370130  RH  095%=      5-min Rain = 0
KWT1 240348Z 32007KT 14/13 A3007 RMK A01 T01370130  RH  095%=      5-min Rain = 0
KWT1 240349Z 33006KT 14/13 A3007 RMK A01 T01380131  RH  095%=      5-min Rain = 0
KWT1 240350Z 35006KT 14/13 A3007 RMK A01 T01380130  RH  095%=      5-min Rain = 0
KWT1 240351Z 00005KT 14/13 A3006 RMK A01 T01380130  RH  095%=      5-min Rain = 0
KWT1 240352Z 02005KT 14/13 A3006 RMK A01 T01380130  RH  095%=      5-min Rain = 0
KWT1 240353Z 03005KT 14/13 A3006 RMK A01 T01380129  RH  095%=      5-min Rain = 0
KWT1 240354Z 02004KT 14/13 A3006 RMK A01 T01380130  RH  095%=      5-min Rain = 0
KWT1 240355Z 01004KT 14/13 A3006 RMK A01 T01370129  RH  095%=      5-min Rain = 0
KWT1 240356Z 04003KT 14/13 A3006 RMK A01 T01380130  RH  095%=      5-min Rain = 0
KWT1 240357Z 04004KT 14/13 A3006 RMK A01 T01370130  RH  096%=      5-min Rain = 0
KWT1 240358Z 06004KT 14/13 A3006 RMK A01 T01370130  RH  096%=      5-min Rain = 0
KWT1 240359Z 08006KT 14/13 A3005 RMK A01 T01370130  RH  095%=      5-min Rain = 0
KWT1 240400Z 08007KT 14/13 A3005 RMK A01 T01370130  RH  095%=      5-min Rain = 0
KWT1 240401Z 07007KT 14/13 A3005 RMK A01 T01370130  RH  095%=      5-min Rain = 0
KWT1 240402Z 06004KT 14/13 A3006 RMK A01 T01370130  RH  095%=      5-min Rain = 0
KWT1 240403Z 03004KT 14/13 A3006 RMK A01 T01370130  RH  095%=      5-min Rain = 0.01
KWT1 240404Z 02004KT 14/13 A3007 RMK A01 T01380130  RH  095%=      5-min Rain = 0
KWT1 240405Z 35004KT 14/13 A3007 RMK A01 T01370130  RH  095%=      5-min Rain = 0
KWT1 240406Z 34004KT 14/13 A3008 RMK A01 T01380131  RH  095%=      5-min Rain = 0
KWT1 240407Z 34003KT 14/13 A3008 RMK A01 T01380131  RH  095%=      5-min Rain = 0.01
KWT1 240408Z 01004KT 14/13 A3008 RMK A01 T01380131  RH  096%=      5-min Rain = 0
KWT1 240409Z 03003KT 14/13 A3007 RMK A01 T01370131  RH  096%=      5-min Rain = 0
KWT1 240410Z 04003KT 14/13 A3007 RMK A01 T01370131  RH  096%=      5-min Rain = 0
KWT1 240411Z 05003KT 14/13 A3007 RMK A01 T01370130  RH  096%=      5-min Rain = 0.01
KWT1 240412Z 06004KT 14/13 A3006 RMK A01 T01370131  RH  096%=      5-min Rain = 0
KWT1 240413Z 06006KT 14/13 A3006 RMK A01 T01370131  RH  096%=      5-min Rain = 0.01
KWT1 240414Z 07007KT 14/13 A3005 RMK A01 T01370131  RH  096%=      5-min Rain = 0
KWT1 240415Z 06008KT 14/13 A3005 RMK A01 T01370131  RH  096%=      5-min Rain = 0.01
KWT1 240416Z 07008KT 14/13 A3004 RMK A01 T01360131  RH  096%=      5-min Rain = 0
KWT1 240417Z 07009KT 14/13 A3003 RMK A01 T01370131  RH  097%=      5-min Rain = 0.01
KWT1 240418Z 07011KT 14/13 A3003 RMK A01 T01360131  RH  097%=      5-min Rain = 0
KWT1 240419Z 07012KT 14/13 A3002 RMK A01 T01360131  RH  097%=      5-min Rain = 0.01
KWT1 240420Z 07012KT 14/13 A3001 RMK A01 T01350131  RH  097%=      5-min Rain = 0
KWT1 240421Z 07014KT 14/13 A3001 RMK A01 T01350130  RH  097%=      5-min Rain = 0.01
KWT1 240422Z 06014KT 14/13 A30 RMK A01 T01350130  RH  097%=      5-min Rain = 0
KWT1 240423Z 05014KT 14/13 A2999 RMK A01 T01350131  RH  097%=      5-min Rain = 0.01
KWT1 240424Z 05014KT 14/13 A2999 RMK A01 T01350131  RH  097%=      5-min Rain = 0
KWT1 240425Z 04014KT 13/13 A2998 RMK A01 T01340131  RH  098%=      5-min Rain = 0
KWT1 240426Z 04015KT 13/13 A2998 RMK A01 T01340131  RH  098%=      5-min Rain = 0.01
KWT1 240427Z 04014KT 13/13 A2997 RMK A01 T01340131  RH  098%=      5-min Rain = 0.01
KWT1 240428Z 04013KT 13/13 A2996 RMK A01 T01340130  RH  098%=      5-min Rain = 0
KWT1 240429Z 04012G19KT 13/13 A2996 RMK A01 T01340130  RH  098%=      5-min Rain = 0.01
KWT1 240430Z 02012G17KT 13/13 A2997 RMK A01 T01330130  RH  098%=      5-min Rain = 0
KWT1 240431Z 01011KT 13/13 A2997 RMK A01 T01330130  RH  098%=      5-min Rain = 0.01
KWT1 240432Z 00014KT 13/13 A2998 RMK A01 T01330129  RH  098%=      5-min Rain = 0
KWT1 240433Z 35015KT 13/13 A2998 RMK A01 T01330129  RH  098%=      5-min Rain = 0.01
KWT1 240434Z 00017KT 13/13 A2998 RMK A01 T01330129  RH  098%=      5-min Rain = 0
KWT1 240435Z 00016G23KT 13/13 A2998 RMK A01 T01330129  RH  098%=      5-min Rain = 0.01
KWT1 240436Z 00018KT 13/13 A2998 RMK A01 T01330129  RH  098%=      5-min Rain = 0
KWT1 240437Z 01018G23KT 13/13 A2998 RMK A01 T01330129  RH  097%=      5-min Rain = 0
KWT1 240438Z 02017KT 13/13 A2998 RMK A01 T01330128  RH  096%=      5-min Rain = 0
KWT1 240439Z 01016KT 13/13 A2998 RMK A01 T01330126  RH  095%=      5-min Rain = 0.01
KWT1 240440Z 00020KT 13/13 A2998 RMK A01 T01340125  RH  095%=      5-min Rain = 0
KWT1 240441Z 36017G22KT 13/13 A2998 RMK A01 T01340125  RH  094%=      5-min Rain = 0
KWT1 240442Z 35015G20KT 13/13 A2998 RMK A01 T01340125  RH  094%=      5-min Rain = 0
KWT1 240443Z 00015KT 14/13 A2998 RMK A01 T01350125  RH  094%=      5-min Rain = 0
KWT1 240444Z 36015KT 13/13 A2998 RMK A01 T01340125  RH  094%=      5-min Rain = 0
KWT1 240445Z 35015KT 13/13 A2998 RMK A01 T01340125  RH  094%=      5-min Rain = 0
KWT1 240446Z 36015KT 13/12 A2997 RMK A01 T01340124  RH  094%=      5-min Rain = 0
KWT1 240447Z 01015KT 13/12 A2997 RMK A01 T01340124  RH  094%=      5-min Rain = 0
KWT1 240448Z 01017KT 13/12 A2997 RMK A01 T01330124  RH  094%=      5-min Rain = 0
KWT1 240449Z 02017G24KT 13/12 A2996 RMK A01 T01330124  RH  094%=      5-min Rain = 0
KWT1 240450Z 02018KT 13/12 A2996 RMK A01 T01330124  RH  094%=      5-min Rain = 0
KWT1 240451Z 02018KT 13/12 A2996 RMK A01 T01320124  RH  094%=      5-min Rain = 0
KWT1 240452Z 02017KT 13/12 A2996 RMK A01 T01330124  RH  095%=      5-min Rain = 0
KWT1 240453Z 02018KT 13/12 A2995 RMK A01 T01320124  RH  095%=      5-min Rain = 0
KWT1 240454Z 03016KT 13/12 A2995 RMK A01 T01320123  RH  095%=      5-min Rain = 0
KWT1 240455Z 03015KT 13/12 A2995 RMK A01 T01320124  RH  095%=      5-min Rain = 0
KWT1 240456Z 03015G20KT 13/12 A2995 RMK A01 T01320124  RH  095%=      5-min Rain = 0
KWT1 240457Z 03016KT 13/13 A2995 RMK A01 T01320125  RH  095%=      5-min Rain = 0
KWT1 240458Z 03014KT 13/13 A2995 RMK A01 T01320125  RH  095%=      5-min Rain = 0
KWT1 240459Z 02013KT 13/12 A2996 RMK A01 T01310124  RH  096%=      5-min Rain = 0

Page generated in 0.1968 seconds.